<?xml version="1.0" encoding="UTF-8" standalone="no" ?>
<gpx xmlns="http://www.topografix.com/GPX/1/1" xmlns:xsi="http://www.w3.org/2001/XMLSchema-instance" xsi:schemaLocation="http://www.topografix.com/GPX/1/1 http://www.topografix.com/GPX/1/1/gpx.xsd" version="1.1" creator="VisuGPX - https://www.visugpx.com">
  <metadata>
    <name>TPSB 2020</name>
  </metadata>
  <trk>
    <name><![CDATA[2017-05-25 16:49:31]]></name>
    <extensions>
      <line xmlns="http://www.topografix.com/GPX/gpx_style/0/2">
        <color>0000FF</color>
        <width>4</width>
      </line>
    </extensions>
    <trkseg>
      <trkpt lat="44.69358" lon="5.48619">
        <ele>528.86</ele>
        <time>2017-05-25T07:13:13Z</time>
      </trkpt>
      <trkpt lat="44.69358" lon="5.48619">
        <ele>528.86</ele>
        <time>2017-05-25T07:13:13Z</time>
      </trkpt>
      <trkpt lat="44.69361" lon="5.48612">
        <ele>572.6</ele>
        <time>2017-05-25T07:20:08Z</time>
      </trkpt>
      <trkpt lat="44.69368" lon="5.48612">
        <ele>572.6</ele>
        <time>2017-05-25T07:20:23Z</time>
      </trkpt>
      <trkpt lat="44.69374" lon="5.4861">
        <ele>573.08</ele>
        <time>2017-05-25T07:20:37Z</time>
      </trkpt>
      <trkpt lat="44.69382" lon="5.48609">
        <ele>573.08</ele>
        <time>2017-05-25T07:20:59Z</time>
      </trkpt>
      <trkpt lat="44.69386" lon="5.48613">
        <ele>573.08</ele>
        <time>2017-05-25T07:21:23Z</time>
      </trkpt>
      <trkpt lat="44.69387" lon="5.48607">
        <ele>573.08</ele>
        <time>2017-05-25T07:22:10Z</time>
      </trkpt>
      <trkpt lat="44.69388" lon="5.48603">
        <ele>572.12</ele>
        <time>2017-05-25T07:22:37Z</time>
      </trkpt>
      <trkpt lat="44.69392" lon="5.48607">
        <ele>572.12</ele>
        <time>2017-05-25T07:22:56Z</time>
      </trkpt>
      <trkpt lat="44.69402" lon="5.48614">
        <ele>572.12</ele>
        <time>2017-05-25T07:23:12Z</time>
      </trkpt>
      <trkpt lat="44.6941" lon="5.48614">
        <ele>572.12</ele>
        <time>2017-05-25T07:23:26Z</time>
      </trkpt>
      <trkpt lat="44.69411" lon="5.48615">
        <ele>573.08</ele>
        <time>2017-05-25T07:23:28Z</time>
      </trkpt>
      <trkpt lat="44.69415" lon="5.48611">
        <ele>576.45</ele>
        <time>2017-05-25T07:23:40Z</time>
      </trkpt>
      <trkpt lat="44.69409" lon="5.48602">
        <ele>579.33</ele>
        <time>2017-05-25T07:23:55Z</time>
      </trkpt>
      <trkpt lat="44.69414" lon="5.48597">
        <ele>581.73</ele>
        <time>2017-05-25T07:24:10Z</time>
      </trkpt>
      <trkpt lat="44.6943" lon="5.48591">
        <ele>583.66</ele>
        <time>2017-05-25T07:24:29Z</time>
      </trkpt>
      <trkpt lat="44.69431" lon="5.48592">
        <ele>583.18</ele>
        <time>2017-05-25T07:24:50Z</time>
      </trkpt>
      <trkpt lat="44.6943" lon="5.48595">
        <ele>582.22</ele>
        <time>2017-05-25T07:25:05Z</time>
      </trkpt>
      <trkpt lat="44.69433" lon="5.48595">
        <ele>581.25</ele>
        <time>2017-05-25T07:25:26Z</time>
      </trkpt>
      <trkpt lat="44.69434" lon="5.48595">
        <ele>582.22</ele>
        <time>2017-05-25T07:28:40Z</time>
      </trkpt>
      <trkpt lat="44.69435" lon="5.48585">
        <ele>581.73</ele>
        <time>2017-05-25T07:28:51Z</time>
      </trkpt>
      <trkpt lat="44.69433" lon="5.48569">
        <ele>581.73</ele>
        <time>2017-05-25T07:29:03Z</time>
      </trkpt>
      <trkpt lat="44.69431" lon="5.48565">
        <ele>581.73</ele>
        <time>2017-05-25T07:29:06Z</time>
      </trkpt>
      <trkpt lat="44.69437" lon="5.48563">
        <ele>581.73</ele>
        <time>2017-05-25T07:29:18Z</time>
      </trkpt>
      <trkpt lat="44.69446" lon="5.48563">
        <ele>582.22</ele>
        <time>2017-05-25T07:29:27Z</time>
      </trkpt>
      <trkpt lat="44.69453" lon="5.48574">
        <ele>584.14</ele>
        <time>2017-05-25T07:29:39Z</time>
      </trkpt>
      <trkpt lat="44.69468" lon="5.48579">
        <ele>584.62</ele>
        <time>2017-05-25T07:29:51Z</time>
      </trkpt>
      <trkpt lat="44.69478" lon="5.48583">
        <ele>585.58</ele>
        <time>2017-05-25T07:30:00Z</time>
      </trkpt>
      <trkpt lat="44.69494" lon="5.48583">
        <ele>587.02</ele>
        <time>2017-05-25T07:30:17Z</time>
      </trkpt>
      <trkpt lat="44.69509" lon="5.48588">
        <ele>590.39</ele>
        <time>2017-05-25T07:30:35Z</time>
      </trkpt>
      <trkpt lat="44.69513" lon="5.48587">
        <ele>591.35</ele>
        <time>2017-05-25T07:30:42Z</time>
      </trkpt>
      <trkpt lat="44.69518" lon="5.48578">
        <ele>590.87</ele>
        <time>2017-05-25T07:30:52Z</time>
      </trkpt>
      <trkpt lat="44.69518" lon="5.48575">
        <ele>590.87</ele>
        <time>2017-05-25T07:30:54Z</time>
      </trkpt>
      <trkpt lat="44.69519" lon="5.4856">
        <ele>591.35</ele>
        <time>2017-05-25T07:31:06Z</time>
      </trkpt>
      <trkpt lat="44.6952" lon="5.4854">
        <ele>590.87</ele>
        <time>2017-05-25T07:31:19Z</time>
      </trkpt>
      <trkpt lat="44.69523" lon="5.48522">
        <ele>590.87</ele>
        <time>2017-05-25T07:31:34Z</time>
      </trkpt>
      <trkpt lat="44.69525" lon="5.48514">
        <ele>590.39</ele>
        <time>2017-05-25T07:31:46Z</time>
      </trkpt>
      <trkpt lat="44.69521" lon="5.48513">
        <ele>590.39</ele>
        <time>2017-05-25T07:32:01Z</time>
      </trkpt>
      <trkpt lat="44.69521" lon="5.48513">
        <ele>589.91</ele>
        <time>2017-05-25T07:32:25Z</time>
      </trkpt>
      <trkpt lat="44.69529" lon="5.48514">
        <ele>590.39</ele>
        <time>2017-05-25T07:32:45Z</time>
      </trkpt>
      <trkpt lat="44.69533" lon="5.48513">
        <ele>591.35</ele>
        <time>2017-05-25T07:32:53Z</time>
      </trkpt>
      <trkpt lat="44.69551" lon="5.48505">
        <ele>593.27</ele>
        <time>2017-05-25T07:33:12Z</time>
      </trkpt>
      <trkpt lat="44.69565" lon="5.48501">
        <ele>595.19</ele>
        <time>2017-05-25T07:33:29Z</time>
      </trkpt>
      <trkpt lat="44.69574" lon="5.48494">
        <ele>596.64</ele>
        <time>2017-05-25T07:33:42Z</time>
      </trkpt>
      <trkpt lat="44.6958" lon="5.4849">
        <ele>598.08</ele>
        <time>2017-05-25T07:33:51Z</time>
      </trkpt>
      <trkpt lat="44.69595" lon="5.48481">
        <ele>599.52</ele>
        <time>2017-05-25T07:34:05Z</time>
      </trkpt>
      <trkpt lat="44.69604" lon="5.48472">
        <ele>601.92</ele>
        <time>2017-05-25T07:34:19Z</time>
      </trkpt>
      <trkpt lat="44.69606" lon="5.48468">
        <ele>601.92</ele>
        <time>2017-05-25T07:34:22Z</time>
      </trkpt>
      <trkpt lat="44.69615" lon="5.48454">
        <ele>603.85</ele>
        <time>2017-05-25T07:34:37Z</time>
      </trkpt>
      <trkpt lat="44.69625" lon="5.48438">
        <ele>605.77</ele>
        <time>2017-05-25T07:34:52Z</time>
      </trkpt>
      <trkpt lat="44.69633" lon="5.48422">
        <ele>607.69</ele>
        <time>2017-05-25T07:35:08Z</time>
      </trkpt>
      <trkpt lat="44.69645" lon="5.48419">
        <ele>608.65</ele>
        <time>2017-05-25T07:35:23Z</time>
      </trkpt>
      <trkpt lat="44.69658" lon="5.48426">
        <ele>610.09</ele>
        <time>2017-05-25T07:35:38Z</time>
      </trkpt>
      <trkpt lat="44.69667" lon="5.48427">
        <ele>611.06</ele>
        <time>2017-05-25T07:35:52Z</time>
      </trkpt>
      <trkpt lat="44.69683" lon="5.48424">
        <ele>612.02</ele>
        <time>2017-05-25T07:36:09Z</time>
      </trkpt>
      <trkpt lat="44.69697" lon="5.48422">
        <ele>612.98</ele>
        <time>2017-05-25T07:36:24Z</time>
      </trkpt>
      <trkpt lat="44.69714" lon="5.48429">
        <ele>614.42</ele>
        <time>2017-05-25T07:36:42Z</time>
      </trkpt>
      <trkpt lat="44.69725" lon="5.48439">
        <ele>616.82</ele>
        <time>2017-05-25T07:36:57Z</time>
      </trkpt>
      <trkpt lat="44.69735" lon="5.48449">
        <ele>618.75</ele>
        <time>2017-05-25T07:37:13Z</time>
      </trkpt>
      <trkpt lat="44.69743" lon="5.48458">
        <ele>620.67</ele>
        <time>2017-05-25T07:37:28Z</time>
      </trkpt>
      <trkpt lat="44.69751" lon="5.48464">
        <ele>624.03</ele>
        <time>2017-05-25T07:37:45Z</time>
      </trkpt>
      <trkpt lat="44.69758" lon="5.48473">
        <ele>626.92</ele>
        <time>2017-05-25T07:38:04Z</time>
      </trkpt>
      <trkpt lat="44.69762" lon="5.48474">
        <ele>628.84</ele>
        <time>2017-05-25T07:38:20Z</time>
      </trkpt>
      <trkpt lat="44.69768" lon="5.4848">
        <ele>631.24</ele>
        <time>2017-05-25T07:38:35Z</time>
      </trkpt>
      <trkpt lat="44.69773" lon="5.48493">
        <ele>633.65</ele>
        <time>2017-05-25T07:38:51Z</time>
      </trkpt>
      <trkpt lat="44.69777" lon="5.48489">
        <ele>636.53</ele>
        <time>2017-05-25T07:39:08Z</time>
      </trkpt>
      <trkpt lat="44.69782" lon="5.48482">
        <ele>638.45</ele>
        <time>2017-05-25T07:39:24Z</time>
      </trkpt>
      <trkpt lat="44.69786" lon="5.48489">
        <ele>639.89</ele>
        <time>2017-05-25T07:39:37Z</time>
      </trkpt>
      <trkpt lat="44.69783" lon="5.48507">
        <ele>641.82</ele>
        <time>2017-05-25T07:39:53Z</time>
      </trkpt>
      <trkpt lat="44.6978" lon="5.48518">
        <ele>642.3</ele>
        <time>2017-05-25T07:40:02Z</time>
      </trkpt>
      <trkpt lat="44.69778" lon="5.48528">
        <ele>644.22</ele>
        <time>2017-05-25T07:40:17Z</time>
      </trkpt>
      <trkpt lat="44.69781" lon="5.48523">
        <ele>645.66</ele>
        <time>2017-05-25T07:40:30Z</time>
      </trkpt>
      <trkpt lat="44.69787" lon="5.48517">
        <ele>647.1</ele>
        <time>2017-05-25T07:40:43Z</time>
      </trkpt>
      <trkpt lat="44.69795" lon="5.48509">
        <ele>649.03</ele>
        <time>2017-05-25T07:40:56Z</time>
      </trkpt>
      <trkpt lat="44.69803" lon="5.48496">
        <ele>650.47</ele>
        <time>2017-05-25T07:41:12Z</time>
      </trkpt>
      <trkpt lat="44.69807" lon="5.48479">
        <ele>651.91</ele>
        <time>2017-05-25T07:41:25Z</time>
      </trkpt>
      <trkpt lat="44.69811" lon="5.48463">
        <ele>653.35</ele>
        <time>2017-05-25T07:41:39Z</time>
      </trkpt>
      <trkpt lat="44.69816" lon="5.48446">
        <ele>655.28</ele>
        <time>2017-05-25T07:41:56Z</time>
      </trkpt>
      <trkpt lat="44.69825" lon="5.48439">
        <ele>657.2</ele>
        <time>2017-05-25T07:42:12Z</time>
      </trkpt>
      <trkpt lat="44.69835" lon="5.48435">
        <ele>658.64</ele>
        <time>2017-05-25T07:42:25Z</time>
      </trkpt>
      <trkpt lat="44.69843" lon="5.48433">
        <ele>660.08</ele>
        <time>2017-05-25T07:42:39Z</time>
      </trkpt>
      <trkpt lat="44.6985" lon="5.48435">
        <ele>662.49</ele>
        <time>2017-05-25T07:42:54Z</time>
      </trkpt>
      <trkpt lat="44.69843" lon="5.48442">
        <ele>663.45</ele>
        <time>2017-05-25T07:43:09Z</time>
      </trkpt>
      <trkpt lat="44.69836" lon="5.4846">
        <ele>664.41</ele>
        <time>2017-05-25T07:43:28Z</time>
      </trkpt>
      <trkpt lat="44.69836" lon="5.4848">
        <ele>666.81</ele>
        <time>2017-05-25T07:43:46Z</time>
      </trkpt>
      <trkpt lat="44.69838" lon="5.48488">
        <ele>668.73</ele>
        <time>2017-05-25T07:44:01Z</time>
      </trkpt>
      <trkpt lat="44.69841" lon="5.48479">
        <ele>670.18</ele>
        <time>2017-05-25T07:44:17Z</time>
      </trkpt>
      <trkpt lat="44.6985" lon="5.48467">
        <ele>671.62</ele>
        <time>2017-05-25T07:44:32Z</time>
      </trkpt>
      <trkpt lat="44.69862" lon="5.48462">
        <ele>673.54</ele>
        <time>2017-05-25T07:44:46Z</time>
      </trkpt>
      <trkpt lat="44.69871" lon="5.4846">
        <ele>674.98</ele>
        <time>2017-05-25T07:44:59Z</time>
      </trkpt>
      <trkpt lat="44.69882" lon="5.48458">
        <ele>675.94</ele>
        <time>2017-05-25T07:45:12Z</time>
      </trkpt>
      <trkpt lat="44.69894" lon="5.48453">
        <ele>678.35</ele>
        <time>2017-05-25T07:45:28Z</time>
      </trkpt>
      <trkpt lat="44.69905" lon="5.48448">
        <ele>679.79</ele>
        <time>2017-05-25T07:45:43Z</time>
      </trkpt>
      <trkpt lat="44.69918" lon="5.48446">
        <ele>682.19</ele>
        <time>2017-05-25T07:45:59Z</time>
      </trkpt>
      <trkpt lat="44.69931" lon="5.48446">
        <ele>683.15</ele>
        <time>2017-05-25T07:46:14Z</time>
      </trkpt>
      <trkpt lat="44.69946" lon="5.48446">
        <ele>684.12</ele>
        <time>2017-05-25T07:46:29Z</time>
      </trkpt>
      <trkpt lat="44.69947" lon="5.4843">
        <ele>684.6</ele>
        <time>2017-05-25T07:46:44Z</time>
      </trkpt>
      <trkpt lat="44.6994" lon="5.48412">
        <ele>686.52</ele>
        <time>2017-05-25T07:47:01Z</time>
      </trkpt>
      <trkpt lat="44.69935" lon="5.484">
        <ele>687.96</ele>
        <time>2017-05-25T07:47:14Z</time>
      </trkpt>
      <trkpt lat="44.69927" lon="5.48386">
        <ele>688.92</ele>
        <time>2017-05-25T07:47:31Z</time>
      </trkpt>
      <trkpt lat="44.69918" lon="5.48376">
        <ele>691.33</ele>
        <time>2017-05-25T07:47:48Z</time>
      </trkpt>
      <trkpt lat="44.6991" lon="5.48363">
        <ele>692.77</ele>
        <time>2017-05-25T07:48:03Z</time>
      </trkpt>
      <trkpt lat="44.69901" lon="5.48348">
        <ele>694.21</ele>
        <time>2017-05-25T07:48:21Z</time>
      </trkpt>
      <trkpt lat="44.69895" lon="5.48335">
        <ele>695.65</ele>
        <time>2017-05-25T07:48:37Z</time>
      </trkpt>
      <trkpt lat="44.69891" lon="5.48322">
        <ele>697.57</ele>
        <time>2017-05-25T07:48:50Z</time>
      </trkpt>
      <trkpt lat="44.69901" lon="5.48328">
        <ele>699.02</ele>
        <time>2017-05-25T07:49:07Z</time>
      </trkpt>
      <trkpt lat="44.69909" lon="5.48335">
        <ele>699.98</ele>
        <time>2017-05-25T07:49:19Z</time>
      </trkpt>
      <trkpt lat="44.69919" lon="5.48342">
        <ele>701.42</ele>
        <time>2017-05-25T07:49:33Z</time>
      </trkpt>
      <trkpt lat="44.69928" lon="5.48351">
        <ele>702.38</ele>
        <time>2017-05-25T07:49:48Z</time>
      </trkpt>
      <trkpt lat="44.69935" lon="5.48353">
        <ele>703.82</ele>
        <time>2017-05-25T07:50:01Z</time>
      </trkpt>
      <trkpt lat="44.69947" lon="5.48354">
        <ele>705.26</ele>
        <time>2017-05-25T07:50:14Z</time>
      </trkpt>
      <trkpt lat="44.69956" lon="5.48352">
        <ele>706.23</ele>
        <time>2017-05-25T07:50:29Z</time>
      </trkpt>
      <trkpt lat="44.69966" lon="5.4835">
        <ele>707.67</ele>
        <time>2017-05-25T07:50:45Z</time>
      </trkpt>
      <trkpt lat="44.69973" lon="5.48346">
        <ele>709.11</ele>
        <time>2017-05-25T07:50:58Z</time>
      </trkpt>
      <trkpt lat="44.6997" lon="5.48338">
        <ele>710.55</ele>
        <time>2017-05-25T07:51:12Z</time>
      </trkpt>
      <trkpt lat="44.69964" lon="5.48329">
        <ele>711.99</ele>
        <time>2017-05-25T07:51:28Z</time>
      </trkpt>
      <trkpt lat="44.69956" lon="5.48322">
        <ele>712.95</ele>
        <time>2017-05-25T07:51:41Z</time>
      </trkpt>
      <trkpt lat="44.69959" lon="5.48319">
        <ele>714.4</ele>
        <time>2017-05-25T07:51:55Z</time>
      </trkpt>
      <trkpt lat="44.69967" lon="5.48317">
        <ele>715.36</ele>
        <time>2017-05-25T07:52:09Z</time>
      </trkpt>
      <trkpt lat="44.69976" lon="5.48318">
        <ele>716.32</ele>
        <time>2017-05-25T07:52:20Z</time>
      </trkpt>
      <trkpt lat="44.69987" lon="5.48317">
        <ele>718.24</ele>
        <time>2017-05-25T07:52:35Z</time>
      </trkpt>
      <trkpt lat="44.69998" lon="5.48317">
        <ele>719.68</ele>
        <time>2017-05-25T07:52:50Z</time>
      </trkpt>
      <trkpt lat="44.70009" lon="5.48317">
        <ele>721.13</ele>
        <time>2017-05-25T07:53:03Z</time>
      </trkpt>
      <trkpt lat="44.70018" lon="5.48317">
        <ele>722.09</ele>
        <time>2017-05-25T07:53:15Z</time>
      </trkpt>
      <trkpt lat="44.70027" lon="5.48319">
        <ele>724.01</ele>
        <time>2017-05-25T07:53:30Z</time>
      </trkpt>
      <trkpt lat="44.70036" lon="5.48316">
        <ele>725.45</ele>
        <time>2017-05-25T07:53:43Z</time>
      </trkpt>
      <trkpt lat="44.70049" lon="5.48313">
        <ele>726.41</ele>
        <time>2017-05-25T07:53:59Z</time>
      </trkpt>
      <trkpt lat="44.70057" lon="5.48323">
        <ele>727.37</ele>
        <time>2017-05-25T07:54:12Z</time>
      </trkpt>
      <trkpt lat="44.70067" lon="5.48336">
        <ele>728.34</ele>
        <time>2017-05-25T07:54:27Z</time>
      </trkpt>
      <trkpt lat="44.70076" lon="5.48355">
        <ele>728.82</ele>
        <time>2017-05-25T07:54:43Z</time>
      </trkpt>
      <trkpt lat="44.70086" lon="5.48369">
        <ele>730.26</ele>
        <time>2017-05-25T07:54:58Z</time>
      </trkpt>
      <trkpt lat="44.70097" lon="5.48375">
        <ele>731.7</ele>
        <time>2017-05-25T07:55:14Z</time>
      </trkpt>
      <trkpt lat="44.70106" lon="5.48373">
        <ele>733.62</ele>
        <time>2017-05-25T07:55:27Z</time>
      </trkpt>
      <trkpt lat="44.70118" lon="5.48377">
        <ele>734.58</ele>
        <time>2017-05-25T07:55:41Z</time>
      </trkpt>
      <trkpt lat="44.70131" lon="5.4838">
        <ele>736.51</ele>
        <time>2017-05-25T07:55:58Z</time>
      </trkpt>
      <trkpt lat="44.70141" lon="5.4838">
        <ele>737.95</ele>
        <time>2017-05-25T07:56:11Z</time>
      </trkpt>
      <trkpt lat="44.70142" lon="5.48384">
        <ele>740.35</ele>
        <time>2017-05-25T07:56:25Z</time>
      </trkpt>
      <trkpt lat="44.70135" lon="5.48387">
        <ele>741.31</ele>
        <time>2017-05-25T07:56:40Z</time>
      </trkpt>
      <trkpt lat="44.7013" lon="5.484">
        <ele>742.76</ele>
        <time>2017-05-25T07:56:55Z</time>
      </trkpt>
      <trkpt lat="44.70127" lon="5.48414">
        <ele>744.2</ele>
        <time>2017-05-25T07:57:09Z</time>
      </trkpt>
      <trkpt lat="44.70129" lon="5.48413">
        <ele>746.12</ele>
        <time>2017-05-25T07:57:28Z</time>
      </trkpt>
      <trkpt lat="44.70134" lon="5.48409">
        <ele>746.6</ele>
        <time>2017-05-25T07:57:44Z</time>
      </trkpt>
      <trkpt lat="44.7015" lon="5.48412">
        <ele>749</ele>
        <time>2017-05-25T07:58:03Z</time>
      </trkpt>
      <trkpt lat="44.7014" lon="5.48415">
        <ele>750.93</ele>
        <time>2017-05-25T07:58:16Z</time>
      </trkpt>
      <trkpt lat="44.70132" lon="5.48426">
        <ele>753.33</ele>
        <time>2017-05-25T07:58:30Z</time>
      </trkpt>
      <trkpt lat="44.70128" lon="5.4843">
        <ele>752.37</ele>
        <time>2017-05-25T07:58:34Z</time>
      </trkpt>
      <trkpt lat="44.70126" lon="5.48439">
        <ele>753.81</ele>
        <time>2017-05-25T07:58:43Z</time>
      </trkpt>
      <trkpt lat="44.7012" lon="5.48453">
        <ele>755.25</ele>
        <time>2017-05-25T07:58:55Z</time>
      </trkpt>
      <trkpt lat="44.70119" lon="5.48472">
        <ele>756.69</ele>
        <time>2017-05-25T07:59:10Z</time>
      </trkpt>
      <trkpt lat="44.70117" lon="5.48485">
        <ele>758.14</ele>
        <time>2017-05-25T07:59:21Z</time>
      </trkpt>
      <trkpt lat="44.70119" lon="5.48495">
        <ele>760.54</ele>
        <time>2017-05-25T07:59:35Z</time>
      </trkpt>
      <trkpt lat="44.70126" lon="5.48477">
        <ele>762.94</ele>
        <time>2017-05-25T07:59:52Z</time>
      </trkpt>
      <trkpt lat="44.70132" lon="5.48463">
        <ele>764.39</ele>
        <time>2017-05-25T08:00:07Z</time>
      </trkpt>
      <trkpt lat="44.70143" lon="5.48454">
        <ele>765.83</ele>
        <time>2017-05-25T08:00:23Z</time>
      </trkpt>
      <trkpt lat="44.70156" lon="5.48454">
        <ele>767.75</ele>
        <time>2017-05-25T08:00:39Z</time>
      </trkpt>
      <trkpt lat="44.70169" lon="5.48455">
        <ele>769.67</ele>
        <time>2017-05-25T08:00:55Z</time>
      </trkpt>
      <trkpt lat="44.70181" lon="5.48454">
        <ele>772.08</ele>
        <time>2017-05-25T08:01:11Z</time>
      </trkpt>
      <trkpt lat="44.70194" lon="5.48455">
        <ele>773.04</ele>
        <time>2017-05-25T08:01:25Z</time>
      </trkpt>
      <trkpt lat="44.70207" lon="5.48455">
        <ele>774.48</ele>
        <time>2017-05-25T08:01:40Z</time>
      </trkpt>
      <trkpt lat="44.7022" lon="5.48454">
        <ele>776.4</ele>
        <time>2017-05-25T08:01:55Z</time>
      </trkpt>
      <trkpt lat="44.70233" lon="5.48451">
        <ele>778.32</ele>
        <time>2017-05-25T08:02:10Z</time>
      </trkpt>
      <trkpt lat="44.70247" lon="5.48443">
        <ele>779.77</ele>
        <time>2017-05-25T08:02:25Z</time>
      </trkpt>
      <trkpt lat="44.70256" lon="5.48442">
        <ele>781.21</ele>
        <time>2017-05-25T08:02:37Z</time>
      </trkpt>
      <trkpt lat="44.70265" lon="5.48438">
        <ele>782.65</ele>
        <time>2017-05-25T08:02:52Z</time>
      </trkpt>
      <trkpt lat="44.70277" lon="5.48436">
        <ele>783.61</ele>
        <time>2017-05-25T08:03:04Z</time>
      </trkpt>
      <trkpt lat="44.70286" lon="5.48427">
        <ele>786.02</ele>
        <time>2017-05-25T08:03:18Z</time>
      </trkpt>
      <trkpt lat="44.70299" lon="5.48422">
        <ele>787.46</ele>
        <time>2017-05-25T08:03:34Z</time>
      </trkpt>
      <trkpt lat="44.70309" lon="5.48421">
        <ele>789.38</ele>
        <time>2017-05-25T08:03:47Z</time>
      </trkpt>
      <trkpt lat="44.7032" lon="5.48405">
        <ele>791.78</ele>
        <time>2017-05-25T08:04:04Z</time>
      </trkpt>
      <trkpt lat="44.70324" lon="5.48411">
        <ele>794.19</ele>
        <time>2017-05-25T08:04:20Z</time>
      </trkpt>
      <trkpt lat="44.70328" lon="5.48422">
        <ele>797.07</ele>
        <time>2017-05-25T08:04:36Z</time>
      </trkpt>
      <trkpt lat="44.7033" lon="5.48438">
        <ele>799.95</ele>
        <time>2017-05-25T08:04:53Z</time>
      </trkpt>
      <trkpt lat="44.70335" lon="5.48448">
        <ele>802.36</ele>
        <time>2017-05-25T08:05:09Z</time>
      </trkpt>
      <trkpt lat="44.70338" lon="5.48454">
        <ele>804.28</ele>
        <time>2017-05-25T08:05:22Z</time>
      </trkpt>
      <trkpt lat="44.70343" lon="5.48459">
        <ele>806.68</ele>
        <time>2017-05-25T08:05:37Z</time>
      </trkpt>
      <trkpt lat="44.70351" lon="5.48465">
        <ele>809.57</ele>
        <time>2017-05-25T08:05:52Z</time>
      </trkpt>
      <trkpt lat="44.70355" lon="5.48471">
        <ele>811.97</ele>
        <time>2017-05-25T08:06:08Z</time>
      </trkpt>
      <trkpt lat="44.70363" lon="5.4848">
        <ele>813.89</ele>
        <time>2017-05-25T08:06:22Z</time>
      </trkpt>
      <trkpt lat="44.7037" lon="5.48492">
        <ele>816.78</ele>
        <time>2017-05-25T08:06:41Z</time>
      </trkpt>
      <trkpt lat="44.70374" lon="5.48497">
        <ele>819.66</ele>
        <time>2017-05-25T08:06:56Z</time>
      </trkpt>
      <trkpt lat="44.70377" lon="5.48502">
        <ele>821.58</ele>
        <time>2017-05-25T08:07:10Z</time>
      </trkpt>
      <trkpt lat="44.70383" lon="5.48512">
        <ele>824.47</ele>
        <time>2017-05-25T08:07:25Z</time>
      </trkpt>
      <trkpt lat="44.70392" lon="5.48515">
        <ele>826.39</ele>
        <time>2017-05-25T08:07:40Z</time>
      </trkpt>
      <trkpt lat="44.70401" lon="5.48524">
        <ele>828.79</ele>
        <time>2017-05-25T08:07:55Z</time>
      </trkpt>
      <trkpt lat="44.70407" lon="5.48532">
        <ele>831.2</ele>
        <time>2017-05-25T08:08:11Z</time>
      </trkpt>
      <trkpt lat="44.70412" lon="5.48544">
        <ele>833.6</ele>
        <time>2017-05-25T08:08:29Z</time>
      </trkpt>
      <trkpt lat="44.70415" lon="5.4855">
        <ele>836</ele>
        <time>2017-05-25T08:08:47Z</time>
      </trkpt>
      <trkpt lat="44.70416" lon="5.48557">
        <ele>838.89</ele>
        <time>2017-05-25T08:09:01Z</time>
      </trkpt>
      <trkpt lat="44.7042" lon="5.48567">
        <ele>840.33</ele>
        <time>2017-05-25T08:09:16Z</time>
      </trkpt>
      <trkpt lat="44.70425" lon="5.4857">
        <ele>843.21</ele>
        <time>2017-05-25T08:09:30Z</time>
      </trkpt>
      <trkpt lat="44.70432" lon="5.48577">
        <ele>844.66</ele>
        <time>2017-05-25T08:09:47Z</time>
      </trkpt>
      <trkpt lat="44.7044" lon="5.48591">
        <ele>847.54</ele>
        <time>2017-05-25T08:10:04Z</time>
      </trkpt>
      <trkpt lat="44.70447" lon="5.48599">
        <ele>849.94</ele>
        <time>2017-05-25T08:10:20Z</time>
      </trkpt>
      <trkpt lat="44.7045" lon="5.48606">
        <ele>852.83</ele>
        <time>2017-05-25T08:10:36Z</time>
      </trkpt>
      <trkpt lat="44.70454" lon="5.48616">
        <ele>855.71</ele>
        <time>2017-05-25T08:10:52Z</time>
      </trkpt>
      <trkpt lat="44.70462" lon="5.48628">
        <ele>857.63</ele>
        <time>2017-05-25T08:11:07Z</time>
      </trkpt>
      <trkpt lat="44.70468" lon="5.48633">
        <ele>859.08</ele>
        <time>2017-05-25T08:11:21Z</time>
      </trkpt>
      <trkpt lat="44.70477" lon="5.4864">
        <ele>861.48</ele>
        <time>2017-05-25T08:11:39Z</time>
      </trkpt>
      <trkpt lat="44.70482" lon="5.48644">
        <ele>863.4</ele>
        <time>2017-05-25T08:11:50Z</time>
      </trkpt>
      <trkpt lat="44.70492" lon="5.48645">
        <ele>865.32</ele>
        <time>2017-05-25T08:12:03Z</time>
      </trkpt>
      <trkpt lat="44.70501" lon="5.48656">
        <ele>867.25</ele>
        <time>2017-05-25T08:12:18Z</time>
      </trkpt>
      <trkpt lat="44.70509" lon="5.4866">
        <ele>868.69</ele>
        <time>2017-05-25T08:12:30Z</time>
      </trkpt>
      <trkpt lat="44.70523" lon="5.48662">
        <ele>869.17</ele>
        <time>2017-05-25T08:12:45Z</time>
      </trkpt>
      <trkpt lat="44.70536" lon="5.48669">
        <ele>871.09</ele>
        <time>2017-05-25T08:13:01Z</time>
      </trkpt>
      <trkpt lat="44.70548" lon="5.48678">
        <ele>873.5</ele>
        <time>2017-05-25T08:13:17Z</time>
      </trkpt>
      <trkpt lat="44.70557" lon="5.48684">
        <ele>875.42</ele>
        <time>2017-05-25T08:13:33Z</time>
      </trkpt>
      <trkpt lat="44.70567" lon="5.48687">
        <ele>877.82</ele>
        <time>2017-05-25T08:13:47Z</time>
      </trkpt>
      <trkpt lat="44.70573" lon="5.48696">
        <ele>880.22</ele>
        <time>2017-05-25T08:14:02Z</time>
      </trkpt>
      <trkpt lat="44.70577" lon="5.48704">
        <ele>883.11</ele>
        <time>2017-05-25T08:14:17Z</time>
      </trkpt>
      <trkpt lat="44.70582" lon="5.4871">
        <ele>885.99</ele>
        <time>2017-05-25T08:14:33Z</time>
      </trkpt>
      <trkpt lat="44.7059" lon="5.48717">
        <ele>888.4</ele>
        <time>2017-05-25T08:14:49Z</time>
      </trkpt>
      <trkpt lat="44.70596" lon="5.48724">
        <ele>891.28</ele>
        <time>2017-05-25T08:15:06Z</time>
      </trkpt>
      <trkpt lat="44.70602" lon="5.48732">
        <ele>894.16</ele>
        <time>2017-05-25T08:15:23Z</time>
      </trkpt>
      <trkpt lat="44.70608" lon="5.48738">
        <ele>896.09</ele>
        <time>2017-05-25T08:15:36Z</time>
      </trkpt>
      <trkpt lat="44.70609" lon="5.48737">
        <ele>897.53</ele>
        <time>2017-05-25T08:15:52Z</time>
      </trkpt>
      <trkpt lat="44.70615" lon="5.48739">
        <ele>900.41</ele>
        <time>2017-05-25T08:16:08Z</time>
      </trkpt>
      <trkpt lat="44.70625" lon="5.4873">
        <ele>902.82</ele>
        <time>2017-05-25T08:16:23Z</time>
      </trkpt>
      <trkpt lat="44.70631" lon="5.48724">
        <ele>903.78</ele>
        <time>2017-05-25T08:16:34Z</time>
      </trkpt>
      <trkpt lat="44.70643" lon="5.4872">
        <ele>904.74</ele>
        <time>2017-05-25T08:16:49Z</time>
      </trkpt>
      <trkpt lat="44.70652" lon="5.48717">
        <ele>905.7</ele>
        <time>2017-05-25T08:17:01Z</time>
      </trkpt>
      <trkpt lat="44.70665" lon="5.4872">
        <ele>907.62</ele>
        <time>2017-05-25T08:17:16Z</time>
      </trkpt>
      <trkpt lat="44.70676" lon="5.48723">
        <ele>908.58</ele>
        <time>2017-05-25T08:17:29Z</time>
      </trkpt>
      <trkpt lat="44.70688" lon="5.48724">
        <ele>909.54</ele>
        <time>2017-05-25T08:17:43Z</time>
      </trkpt>
      <trkpt lat="44.70702" lon="5.4873">
        <ele>911.95</ele>
        <time>2017-05-25T08:17:58Z</time>
      </trkpt>
      <trkpt lat="44.70709" lon="5.48737">
        <ele>915.31</ele>
        <time>2017-05-25T08:18:13Z</time>
      </trkpt>
      <trkpt lat="44.70701" lon="5.48734">
        <ele>917.72</ele>
        <time>2017-05-25T08:18:28Z</time>
      </trkpt>
      <trkpt lat="44.70703" lon="5.48739">
        <ele>920.12</ele>
        <time>2017-05-25T08:18:42Z</time>
      </trkpt>
      <trkpt lat="44.70716" lon="5.48744">
        <ele>922.52</ele>
        <time>2017-05-25T08:19:01Z</time>
      </trkpt>
      <trkpt lat="44.70725" lon="5.48748">
        <ele>924.45</ele>
        <time>2017-05-25T08:19:17Z</time>
      </trkpt>
      <trkpt lat="44.70734" lon="5.4875">
        <ele>927.33</ele>
        <time>2017-05-25T08:19:31Z</time>
      </trkpt>
      <trkpt lat="44.7074" lon="5.48754">
        <ele>928.77</ele>
        <time>2017-05-25T08:19:44Z</time>
      </trkpt>
      <trkpt lat="44.70753" lon="5.48761">
        <ele>931.17</ele>
        <time>2017-05-25T08:20:01Z</time>
      </trkpt>
      <trkpt lat="44.70755" lon="5.48765">
        <ele>933.1</ele>
        <time>2017-05-25T08:20:14Z</time>
      </trkpt>
      <trkpt lat="44.70754" lon="5.48769">
        <ele>934.54</ele>
        <time>2017-05-25T08:20:27Z</time>
      </trkpt>
      <trkpt lat="44.70761" lon="5.48774">
        <ele>937.42</ele>
        <time>2017-05-25T08:20:43Z</time>
      </trkpt>
      <trkpt lat="44.70766" lon="5.48782">
        <ele>939.35</ele>
        <time>2017-05-25T08:20:58Z</time>
      </trkpt>
      <trkpt lat="44.7076" lon="5.48783">
        <ele>941.27</ele>
        <time>2017-05-25T08:21:13Z</time>
      </trkpt>
      <trkpt lat="44.70766" lon="5.48786">
        <ele>943.67</ele>
        <time>2017-05-25T08:21:31Z</time>
      </trkpt>
      <trkpt lat="44.70775" lon="5.48792">
        <ele>946.07</ele>
        <time>2017-05-25T08:21:47Z</time>
      </trkpt>
      <trkpt lat="44.7078" lon="5.48797">
        <ele>948.48</ele>
        <time>2017-05-25T08:22:02Z</time>
      </trkpt>
      <trkpt lat="44.70784" lon="5.48801">
        <ele>950.88</ele>
        <time>2017-05-25T08:22:17Z</time>
      </trkpt>
      <trkpt lat="44.70793" lon="5.48809">
        <ele>953.28</ele>
        <time>2017-05-25T08:22:33Z</time>
      </trkpt>
      <trkpt lat="44.70805" lon="5.48817">
        <ele>954.73</ele>
        <time>2017-05-25T08:22:49Z</time>
      </trkpt>
      <trkpt lat="44.70816" lon="5.4881">
        <ele>957.13</ele>
        <time>2017-05-25T08:23:03Z</time>
      </trkpt>
      <trkpt lat="44.70823" lon="5.48799">
        <ele>959.53</ele>
        <time>2017-05-25T08:23:18Z</time>
      </trkpt>
      <trkpt lat="44.7083" lon="5.48787">
        <ele>961.94</ele>
        <time>2017-05-25T08:23:33Z</time>
      </trkpt>
      <trkpt lat="44.70836" lon="5.48781">
        <ele>963.86</ele>
        <time>2017-05-25T08:23:47Z</time>
      </trkpt>
      <trkpt lat="44.70843" lon="5.48773">
        <ele>965.78</ele>
        <time>2017-05-25T08:24:02Z</time>
      </trkpt>
      <trkpt lat="44.70852" lon="5.48761">
        <ele>968.18</ele>
        <time>2017-05-25T08:24:16Z</time>
      </trkpt>
      <trkpt lat="44.70849" lon="5.48745">
        <ele>969.63</ele>
        <time>2017-05-25T08:24:29Z</time>
      </trkpt>
      <trkpt lat="44.70845" lon="5.48728">
        <ele>969.63</ele>
        <time>2017-05-25T08:24:42Z</time>
      </trkpt>
      <trkpt lat="44.70844" lon="5.48713">
        <ele>969.63</ele>
        <time>2017-05-25T08:24:55Z</time>
      </trkpt>
      <trkpt lat="44.70849" lon="5.48694">
        <ele>969.63</ele>
        <time>2017-05-25T08:25:11Z</time>
      </trkpt>
      <trkpt lat="44.70855" lon="5.48686">
        <ele>970.11</ele>
        <time>2017-05-25T08:25:24Z</time>
      </trkpt>
      <trkpt lat="44.70861" lon="5.48673">
        <ele>971.55</ele>
        <time>2017-05-25T08:25:37Z</time>
      </trkpt>
      <trkpt lat="44.70856" lon="5.48654">
        <ele>973.47</ele>
        <time>2017-05-25T08:25:51Z</time>
      </trkpt>
      <trkpt lat="44.70848" lon="5.48639">
        <ele>974.43</ele>
        <time>2017-05-25T08:26:06Z</time>
      </trkpt>
      <trkpt lat="44.70841" lon="5.48622">
        <ele>975.39</ele>
        <time>2017-05-25T08:26:21Z</time>
      </trkpt>
      <trkpt lat="44.70835" lon="5.486">
        <ele>976.84</ele>
        <time>2017-05-25T08:26:37Z</time>
      </trkpt>
      <trkpt lat="44.7083" lon="5.48582">
        <ele>978.28</ele>
        <time>2017-05-25T08:26:52Z</time>
      </trkpt>
      <trkpt lat="44.70825" lon="5.4857">
        <ele>980.2</ele>
        <time>2017-05-25T08:27:04Z</time>
      </trkpt>
      <trkpt lat="44.7082" lon="5.48554">
        <ele>981.64</ele>
        <time>2017-05-25T08:27:20Z</time>
      </trkpt>
      <trkpt lat="44.70818" lon="5.48538">
        <ele>984.05</ele>
        <time>2017-05-25T08:27:34Z</time>
      </trkpt>
      <trkpt lat="44.70817" lon="5.48526">
        <ele>986.93</ele>
        <time>2017-05-25T08:27:51Z</time>
      </trkpt>
      <trkpt lat="44.70815" lon="5.48517">
        <ele>989.81</ele>
        <time>2017-05-25T08:28:05Z</time>
      </trkpt>
      <trkpt lat="44.7082" lon="5.4851">
        <ele>992.7</ele>
        <time>2017-05-25T08:28:20Z</time>
      </trkpt>
      <trkpt lat="44.70822" lon="5.48498">
        <ele>995.1</ele>
        <time>2017-05-25T08:28:35Z</time>
      </trkpt>
      <trkpt lat="44.70821" lon="5.48491">
        <ele>997.51</ele>
        <time>2017-05-25T08:28:52Z</time>
      </trkpt>
      <trkpt lat="44.7082" lon="5.48482">
        <ele>1000.87</ele>
        <time>2017-05-25T08:29:07Z</time>
      </trkpt>
      <trkpt lat="44.7082" lon="5.48471">
        <ele>1002.79</ele>
        <time>2017-05-25T08:29:21Z</time>
      </trkpt>
      <trkpt lat="44.70821" lon="5.4846">
        <ele>1004.72</ele>
        <time>2017-05-25T08:29:34Z</time>
      </trkpt>
      <trkpt lat="44.70821" lon="5.48447">
        <ele>1006.64</ele>
        <time>2017-05-25T08:29:49Z</time>
      </trkpt>
      <trkpt lat="44.70826" lon="5.48436">
        <ele>1009.52</ele>
        <time>2017-05-25T08:30:06Z</time>
      </trkpt>
      <trkpt lat="44.70831" lon="5.48428">
        <ele>1010.96</ele>
        <time>2017-05-25T08:30:18Z</time>
      </trkpt>
      <trkpt lat="44.70834" lon="5.48417">
        <ele>1013.37</ele>
        <time>2017-05-25T08:30:32Z</time>
      </trkpt>
      <trkpt lat="44.70838" lon="5.48419">
        <ele>1015.77</ele>
        <time>2017-05-25T08:30:47Z</time>
      </trkpt>
      <trkpt lat="44.70841" lon="5.4843">
        <ele>1018.65</ele>
        <time>2017-05-25T08:31:03Z</time>
      </trkpt>
      <trkpt lat="44.70842" lon="5.48443">
        <ele>1020.1</ele>
        <time>2017-05-25T08:31:17Z</time>
      </trkpt>
      <trkpt lat="44.70846" lon="5.48457">
        <ele>1022.02</ele>
        <time>2017-05-25T08:31:33Z</time>
      </trkpt>
      <trkpt lat="44.70851" lon="5.48471">
        <ele>1023.94</ele>
        <time>2017-05-25T08:31:47Z</time>
      </trkpt>
      <trkpt lat="44.70856" lon="5.48486">
        <ele>1024.9</ele>
        <time>2017-05-25T08:32:01Z</time>
      </trkpt>
      <trkpt lat="44.70864" lon="5.48499">
        <ele>1027.31</ele>
        <time>2017-05-25T08:32:18Z</time>
      </trkpt>
      <trkpt lat="44.70871" lon="5.48508">
        <ele>1030.67</ele>
        <time>2017-05-25T08:32:34Z</time>
      </trkpt>
      <trkpt lat="44.70879" lon="5.48513">
        <ele>1032.11</ele>
        <time>2017-05-25T08:32:49Z</time>
      </trkpt>
      <trkpt lat="44.70886" lon="5.48522">
        <ele>1035</ele>
        <time>2017-05-25T08:33:03Z</time>
      </trkpt>
      <trkpt lat="44.70892" lon="5.48531">
        <ele>1037.4</ele>
        <time>2017-05-25T08:33:19Z</time>
      </trkpt>
      <trkpt lat="44.70903" lon="5.48542">
        <ele>1039.8</ele>
        <time>2017-05-25T08:33:36Z</time>
      </trkpt>
      <trkpt lat="44.70911" lon="5.48549">
        <ele>1041.73</ele>
        <time>2017-05-25T08:33:51Z</time>
      </trkpt>
      <trkpt lat="44.70919" lon="5.48559">
        <ele>1044.13</ele>
        <time>2017-05-25T08:34:06Z</time>
      </trkpt>
      <trkpt lat="44.70926" lon="5.48567">
        <ele>1045.57</ele>
        <time>2017-05-25T08:34:19Z</time>
      </trkpt>
      <trkpt lat="44.70932" lon="5.48573">
        <ele>1047.97</ele>
        <time>2017-05-25T08:34:32Z</time>
      </trkpt>
      <trkpt lat="44.70939" lon="5.48585">
        <ele>1049.9</ele>
        <time>2017-05-25T08:34:48Z</time>
      </trkpt>
      <trkpt lat="44.70944" lon="5.48596">
        <ele>1051.34</ele>
        <time>2017-05-25T08:35:03Z</time>
      </trkpt>
      <trkpt lat="44.70953" lon="5.48609">
        <ele>1054.22</ele>
        <time>2017-05-25T08:35:20Z</time>
      </trkpt>
      <trkpt lat="44.70955" lon="5.4861">
        <ele>1054.7</ele>
        <time>2017-05-25T08:35:22Z</time>
      </trkpt>
      <trkpt lat="44.70961" lon="5.48621">
        <ele>1056.15</ele>
        <time>2017-05-25T08:35:36Z</time>
      </trkpt>
      <trkpt lat="44.70966" lon="5.48632">
        <ele>1058.07</ele>
        <time>2017-05-25T08:35:50Z</time>
      </trkpt>
      <trkpt lat="44.70974" lon="5.48644">
        <ele>1059.51</ele>
        <time>2017-05-25T08:36:04Z</time>
      </trkpt>
      <trkpt lat="44.70977" lon="5.48645">
        <ele>1061.43</ele>
        <time>2017-05-25T08:36:19Z</time>
      </trkpt>
      <trkpt lat="44.70977" lon="5.48628">
        <ele>1063.84</ele>
        <time>2017-05-25T08:36:36Z</time>
      </trkpt>
      <trkpt lat="44.70979" lon="5.48612">
        <ele>1066.24</ele>
        <time>2017-05-25T08:36:51Z</time>
      </trkpt>
      <trkpt lat="44.70981" lon="5.48601">
        <ele>1067.68</ele>
        <time>2017-05-25T08:37:05Z</time>
      </trkpt>
      <trkpt lat="44.7098" lon="5.48591">
        <ele>1070.57</ele>
        <time>2017-05-25T08:37:19Z</time>
      </trkpt>
      <trkpt lat="44.70983" lon="5.48579">
        <ele>1072.97</ele>
        <time>2017-05-25T08:37:35Z</time>
      </trkpt>
      <trkpt lat="44.70983" lon="5.48565">
        <ele>1075.37</ele>
        <time>2017-05-25T08:37:49Z</time>
      </trkpt>
      <trkpt lat="44.70983" lon="5.48553">
        <ele>1077.78</ele>
        <time>2017-05-25T08:38:02Z</time>
      </trkpt>
      <trkpt lat="44.70982" lon="5.48542">
        <ele>1079.22</ele>
        <time>2017-05-25T08:38:16Z</time>
      </trkpt>
      <trkpt lat="44.70981" lon="5.48529">
        <ele>1082.1</ele>
        <time>2017-05-25T08:38:30Z</time>
      </trkpt>
      <trkpt lat="44.70982" lon="5.48515">
        <ele>1084.02</ele>
        <time>2017-05-25T08:38:44Z</time>
      </trkpt>
      <trkpt lat="44.7098" lon="5.48502">
        <ele>1085.47</ele>
        <time>2017-05-25T08:38:56Z</time>
      </trkpt>
      <trkpt lat="44.7098" lon="5.48488">
        <ele>1087.39</ele>
        <time>2017-05-25T08:39:11Z</time>
      </trkpt>
      <trkpt lat="44.70987" lon="5.48491">
        <ele>1090.27</ele>
        <time>2017-05-25T08:39:29Z</time>
      </trkpt>
      <trkpt lat="44.70996" lon="5.48493">
        <ele>1092.68</ele>
        <time>2017-05-25T08:39:46Z</time>
      </trkpt>
      <trkpt lat="44.71005" lon="5.48498">
        <ele>1095.08</ele>
        <time>2017-05-25T08:40:02Z</time>
      </trkpt>
      <trkpt lat="44.71014" lon="5.48505">
        <ele>1097.48</ele>
        <time>2017-05-25T08:40:19Z</time>
      </trkpt>
      <trkpt lat="44.7102" lon="5.48517">
        <ele>1098.92</ele>
        <time>2017-05-25T08:40:34Z</time>
      </trkpt>
      <trkpt lat="44.71025" lon="5.48527">
        <ele>1100.85</ele>
        <time>2017-05-25T08:40:49Z</time>
      </trkpt>
      <trkpt lat="44.71032" lon="5.48538">
        <ele>1103.25</ele>
        <time>2017-05-25T08:41:05Z</time>
      </trkpt>
      <trkpt lat="44.71039" lon="5.48535">
        <ele>1105.65</ele>
        <time>2017-05-25T08:41:22Z</time>
      </trkpt>
      <trkpt lat="44.71048" lon="5.48543">
        <ele>1109.02</ele>
        <time>2017-05-25T08:41:38Z</time>
      </trkpt>
      <trkpt lat="44.71055" lon="5.48552">
        <ele>1111.42</ele>
        <time>2017-05-25T08:41:55Z</time>
      </trkpt>
      <trkpt lat="44.71063" lon="5.48566">
        <ele>1114.79</ele>
        <time>2017-05-25T08:42:14Z</time>
      </trkpt>
      <trkpt lat="44.71073" lon="5.48576">
        <ele>1122.96</ele>
        <time>2017-05-25T09:02:13Z</time>
      </trkpt>
      <trkpt lat="44.71076" lon="5.48578">
        <ele>1123.44</ele>
        <time>2017-05-25T09:02:32Z</time>
      </trkpt>
      <trkpt lat="44.71078" lon="5.48585">
        <ele>1126.32</ele>
        <time>2017-05-25T09:02:48Z</time>
      </trkpt>
      <trkpt lat="44.7108" lon="5.48592">
        <ele>1128.24</ele>
        <time>2017-05-25T09:03:03Z</time>
      </trkpt>
      <trkpt lat="44.71085" lon="5.48606">
        <ele>1130.17</ele>
        <time>2017-05-25T09:03:20Z</time>
      </trkpt>
      <trkpt lat="44.7109" lon="5.48618">
        <ele>1132.09</ele>
        <time>2017-05-25T09:03:34Z</time>
      </trkpt>
      <trkpt lat="44.71097" lon="5.4863">
        <ele>1133.53</ele>
        <time>2017-05-25T09:03:49Z</time>
      </trkpt>
      <trkpt lat="44.71104" lon="5.48642">
        <ele>1135.94</ele>
        <time>2017-05-25T09:04:05Z</time>
      </trkpt>
      <trkpt lat="44.71111" lon="5.48653">
        <ele>1137.86</ele>
        <time>2017-05-25T09:04:20Z</time>
      </trkpt>
      <trkpt lat="44.71121" lon="5.48662">
        <ele>1140.26</ele>
        <time>2017-05-25T09:04:37Z</time>
      </trkpt>
      <trkpt lat="44.71127" lon="5.48675">
        <ele>1141.7</ele>
        <time>2017-05-25T09:04:53Z</time>
      </trkpt>
      <trkpt lat="44.71134" lon="5.48688">
        <ele>1144.11</ele>
        <time>2017-05-25T09:05:12Z</time>
      </trkpt>
      <trkpt lat="44.71139" lon="5.48682">
        <ele>1146.03</ele>
        <time>2017-05-25T09:05:27Z</time>
      </trkpt>
      <trkpt lat="44.71149" lon="5.48671">
        <ele>1148.91</ele>
        <time>2017-05-25T09:05:46Z</time>
      </trkpt>
      <trkpt lat="44.71157" lon="5.48677">
        <ele>1151.8</ele>
        <time>2017-05-25T09:06:01Z</time>
      </trkpt>
      <trkpt lat="44.71167" lon="5.48686">
        <ele>1152.76</ele>
        <time>2017-05-25T09:06:15Z</time>
      </trkpt>
      <trkpt lat="44.71177" lon="5.48697">
        <ele>1152.76</ele>
        <time>2017-05-25T09:06:29Z</time>
      </trkpt>
      <trkpt lat="44.71186" lon="5.48713">
        <ele>1151.8</ele>
        <time>2017-05-25T09:06:43Z</time>
      </trkpt>
      <trkpt lat="44.71198" lon="5.48728">
        <ele>1150.84</ele>
        <time>2017-05-25T09:06:58Z</time>
      </trkpt>
      <trkpt lat="44.71208" lon="5.48738">
        <ele>1150.35</ele>
        <time>2017-05-25T09:07:09Z</time>
      </trkpt>
      <trkpt lat="44.71221" lon="5.48747">
        <ele>1150.35</ele>
        <time>2017-05-25T09:07:21Z</time>
      </trkpt>
      <trkpt lat="44.71228" lon="5.48755">
        <ele>1152.28</ele>
        <time>2017-05-25T09:07:35Z</time>
      </trkpt>
      <trkpt lat="44.71239" lon="5.4876">
        <ele>1154.2</ele>
        <time>2017-05-25T09:07:48Z</time>
      </trkpt>
      <trkpt lat="44.71253" lon="5.48764">
        <ele>1156.12</ele>
        <time>2017-05-25T09:08:00Z</time>
      </trkpt>
      <trkpt lat="44.71264" lon="5.48766">
        <ele>1158.05</ele>
        <time>2017-05-25T09:08:13Z</time>
      </trkpt>
      <trkpt lat="44.71277" lon="5.48769">
        <ele>1159.49</ele>
        <time>2017-05-25T09:08:27Z</time>
      </trkpt>
      <trkpt lat="44.71288" lon="5.4877">
        <ele>1161.89</ele>
        <time>2017-05-25T09:08:39Z</time>
      </trkpt>
      <trkpt lat="44.71298" lon="5.48773">
        <ele>1162.85</ele>
        <time>2017-05-25T09:08:52Z</time>
      </trkpt>
      <trkpt lat="44.7131" lon="5.48774">
        <ele>1164.29</ele>
        <time>2017-05-25T09:09:05Z</time>
      </trkpt>
      <trkpt lat="44.7132" lon="5.48774">
        <ele>1165.74</ele>
        <time>2017-05-25T09:09:18Z</time>
      </trkpt>
      <trkpt lat="44.71327" lon="5.48773">
        <ele>1167.18</ele>
        <time>2017-05-25T09:09:30Z</time>
      </trkpt>
      <trkpt lat="44.71337" lon="5.48774">
        <ele>1170.06</ele>
        <time>2017-05-25T09:09:46Z</time>
      </trkpt>
      <trkpt lat="44.71347" lon="5.48779">
        <ele>1171.5</ele>
        <time>2017-05-25T09:09:58Z</time>
      </trkpt>
      <trkpt lat="44.71356" lon="5.4878">
        <ele>1173.91</ele>
        <time>2017-05-25T09:10:11Z</time>
      </trkpt>
      <trkpt lat="44.71364" lon="5.48778">
        <ele>1175.83</ele>
        <time>2017-05-25T09:10:25Z</time>
      </trkpt>
      <trkpt lat="44.71368" lon="5.48785">
        <ele>1177.75</ele>
        <time>2017-05-25T09:10:37Z</time>
      </trkpt>
      <trkpt lat="44.71374" lon="5.48792">
        <ele>1181.12</ele>
        <time>2017-05-25T09:10:54Z</time>
      </trkpt>
      <trkpt lat="44.71382" lon="5.48796">
        <ele>1183.04</ele>
        <time>2017-05-25T09:11:09Z</time>
      </trkpt>
      <trkpt lat="44.71389" lon="5.48795">
        <ele>1184.96</ele>
        <time>2017-05-25T09:11:22Z</time>
      </trkpt>
      <trkpt lat="44.71396" lon="5.48793">
        <ele>1187.37</ele>
        <time>2017-05-25T09:11:36Z</time>
      </trkpt>
      <trkpt lat="44.71408" lon="5.48789">
        <ele>1188.81</ele>
        <time>2017-05-25T09:11:50Z</time>
      </trkpt>
      <trkpt lat="44.71419" lon="5.48781">
        <ele>1189.29</ele>
        <time>2017-05-25T09:12:01Z</time>
      </trkpt>
      <trkpt lat="44.71427" lon="5.48778">
        <ele>1191.21</ele>
        <time>2017-05-25T09:12:14Z</time>
      </trkpt>
      <trkpt lat="44.71438" lon="5.48773">
        <ele>1193.61</ele>
        <time>2017-05-25T09:12:30Z</time>
      </trkpt>
      <trkpt lat="44.71446" lon="5.4877">
        <ele>1196.02</ele>
        <time>2017-05-25T09:12:43Z</time>
      </trkpt>
      <trkpt lat="44.71455" lon="5.48767">
        <ele>1198.42</ele>
        <time>2017-05-25T09:12:57Z</time>
      </trkpt>
      <trkpt lat="44.71461" lon="5.48762">
        <ele>1200.34</ele>
        <time>2017-05-25T09:13:10Z</time>
      </trkpt>
      <trkpt lat="44.71469" lon="5.48757">
        <ele>1201.79</ele>
        <time>2017-05-25T09:13:23Z</time>
      </trkpt>
      <trkpt lat="44.71478" lon="5.48755">
        <ele>1204.19</ele>
        <time>2017-05-25T09:13:37Z</time>
      </trkpt>
      <trkpt lat="44.71489" lon="5.48748">
        <ele>1206.59</ele>
        <time>2017-05-25T09:13:52Z</time>
      </trkpt>
      <trkpt lat="44.71498" lon="5.48744">
        <ele>1208.51</ele>
        <time>2017-05-25T09:14:06Z</time>
      </trkpt>
      <trkpt lat="44.71502" lon="5.48742">
        <ele>1211.88</ele>
        <time>2017-05-25T09:14:18Z</time>
      </trkpt>
      <trkpt lat="44.71504" lon="5.48742">
        <ele>1211.88</ele>
        <time>2017-05-25T09:14:21Z</time>
      </trkpt>
      <trkpt lat="44.71514" lon="5.48739">
        <ele>1212.84</ele>
        <time>2017-05-25T09:14:37Z</time>
      </trkpt>
      <trkpt lat="44.71522" lon="5.48736">
        <ele>1214.76</ele>
        <time>2017-05-25T09:14:49Z</time>
      </trkpt>
      <trkpt lat="44.71531" lon="5.48725">
        <ele>1216.69</ele>
        <time>2017-05-25T09:15:03Z</time>
      </trkpt>
      <trkpt lat="44.7154" lon="5.48716">
        <ele>1219.57</ele>
        <time>2017-05-25T09:15:19Z</time>
      </trkpt>
      <trkpt lat="44.71547" lon="5.48705">
        <ele>1221.49</ele>
        <time>2017-05-25T09:15:33Z</time>
      </trkpt>
      <trkpt lat="44.71556" lon="5.48696">
        <ele>1223.9</ele>
        <time>2017-05-25T09:15:49Z</time>
      </trkpt>
      <trkpt lat="44.71563" lon="5.48686">
        <ele>1226.3</ele>
        <time>2017-05-25T09:16:05Z</time>
      </trkpt>
      <trkpt lat="44.71572" lon="5.48675">
        <ele>1228.7</ele>
        <time>2017-05-25T09:16:22Z</time>
      </trkpt>
      <trkpt lat="44.7158" lon="5.48665">
        <ele>1231.11</ele>
        <time>2017-05-25T09:16:39Z</time>
      </trkpt>
      <trkpt lat="44.7159" lon="5.48657">
        <ele>1232.55</ele>
        <time>2017-05-25T09:16:55Z</time>
      </trkpt>
      <trkpt lat="44.71599" lon="5.48653">
        <ele>1233.99</ele>
        <time>2017-05-25T09:17:10Z</time>
      </trkpt>
      <trkpt lat="44.71605" lon="5.48641">
        <ele>1235.43</ele>
        <time>2017-05-25T09:17:24Z</time>
      </trkpt>
      <trkpt lat="44.71613" lon="5.48626">
        <ele>1237.83</ele>
        <time>2017-05-25T09:17:42Z</time>
      </trkpt>
      <trkpt lat="44.71617" lon="5.48615">
        <ele>1240.72</ele>
        <time>2017-05-25T09:17:58Z</time>
      </trkpt>
      <trkpt lat="44.71625" lon="5.48605">
        <ele>1243.12</ele>
        <time>2017-05-25T09:18:14Z</time>
      </trkpt>
      <trkpt lat="44.71633" lon="5.48594">
        <ele>1245.04</ele>
        <time>2017-05-25T09:18:32Z</time>
      </trkpt>
      <trkpt lat="44.71637" lon="5.48584">
        <ele>1247.45</ele>
        <time>2017-05-25T09:18:46Z</time>
      </trkpt>
      <trkpt lat="44.71642" lon="5.48572">
        <ele>1249.37</ele>
        <time>2017-05-25T09:19:02Z</time>
      </trkpt>
      <trkpt lat="44.71649" lon="5.48564">
        <ele>1251.77</ele>
        <time>2017-05-25T09:19:15Z</time>
      </trkpt>
      <trkpt lat="44.71649" lon="5.48568">
        <ele>1254.18</ele>
        <time>2017-05-25T09:19:29Z</time>
      </trkpt>
      <trkpt lat="44.7165" lon="5.48582">
        <ele>1255.62</ele>
        <time>2017-05-25T09:19:44Z</time>
      </trkpt>
      <trkpt lat="44.71648" lon="5.48595">
        <ele>1257.54</ele>
        <time>2017-05-25T09:20:00Z</time>
      </trkpt>
      <trkpt lat="44.71646" lon="5.48607">
        <ele>1258.5</ele>
        <time>2017-05-25T09:20:14Z</time>
      </trkpt>
      <trkpt lat="44.71651" lon="5.48614">
        <ele>1260.91</ele>
        <time>2017-05-25T09:20:29Z</time>
      </trkpt>
      <trkpt lat="44.71658" lon="5.48612">
        <ele>1264.27</ele>
        <time>2017-05-25T09:20:47Z</time>
      </trkpt>
      <trkpt lat="44.71665" lon="5.48606">
        <ele>1266.19</ele>
        <time>2017-05-25T09:21:01Z</time>
      </trkpt>
      <trkpt lat="44.7167" lon="5.48591">
        <ele>1269.08</ele>
        <time>2017-05-25T09:21:18Z</time>
      </trkpt>
      <trkpt lat="44.71677" lon="5.4858">
        <ele>1271</ele>
        <time>2017-05-25T09:21:33Z</time>
      </trkpt>
      <trkpt lat="44.71683" lon="5.48571">
        <ele>1274.36</ele>
        <time>2017-05-25T09:21:49Z</time>
      </trkpt>
      <trkpt lat="44.71687" lon="5.48561">
        <ele>1276.29</ele>
        <time>2017-05-25T09:22:04Z</time>
      </trkpt>
      <trkpt lat="44.7169" lon="5.4855">
        <ele>1278.69</ele>
        <time>2017-05-25T09:22:21Z</time>
      </trkpt>
      <trkpt lat="44.71695" lon="5.4854">
        <ele>1281.09</ele>
        <time>2017-05-25T09:22:37Z</time>
      </trkpt>
      <trkpt lat="44.71698" lon="5.48533">
        <ele>1283.5</ele>
        <time>2017-05-25T09:22:53Z</time>
      </trkpt>
      <trkpt lat="44.71699" lon="5.48544">
        <ele>1285.42</ele>
        <time>2017-05-25T09:23:10Z</time>
      </trkpt>
      <trkpt lat="44.717" lon="5.48557">
        <ele>1288.3</ele>
        <time>2017-05-25T09:23:27Z</time>
      </trkpt>
      <trkpt lat="44.71704" lon="5.48565">
        <ele>1290.71</ele>
        <time>2017-05-25T09:23:43Z</time>
      </trkpt>
      <trkpt lat="44.71707" lon="5.48573">
        <ele>1293.11</ele>
        <time>2017-05-25T09:24:00Z</time>
      </trkpt>
      <trkpt lat="44.71713" lon="5.4857">
        <ele>1294.55</ele>
        <time>2017-05-25T09:24:14Z</time>
      </trkpt>
      <trkpt lat="44.71719" lon="5.4856">
        <ele>1296.48</ele>
        <time>2017-05-25T09:24:29Z</time>
      </trkpt>
      <trkpt lat="44.71721" lon="5.48549">
        <ele>1298.4</ele>
        <time>2017-05-25T09:24:45Z</time>
      </trkpt>
      <trkpt lat="44.71728" lon="5.48541">
        <ele>1301.28</ele>
        <time>2017-05-25T09:25:04Z</time>
      </trkpt>
      <trkpt lat="44.7173" lon="5.48548">
        <ele>1303.69</ele>
        <time>2017-05-25T09:25:20Z</time>
      </trkpt>
      <trkpt lat="44.71734" lon="5.4855">
        <ele>1305.61</ele>
        <time>2017-05-25T09:25:34Z</time>
      </trkpt>
      <trkpt lat="44.71739" lon="5.48538">
        <ele>1308.01</ele>
        <time>2017-05-25T09:25:52Z</time>
      </trkpt>
      <trkpt lat="44.71743" lon="5.48523">
        <ele>1309.93</ele>
        <time>2017-05-25T09:26:07Z</time>
      </trkpt>
      <trkpt lat="44.71748" lon="5.4853">
        <ele>1312.82</ele>
        <time>2017-05-25T09:26:22Z</time>
      </trkpt>
      <trkpt lat="44.7175" lon="5.48542">
        <ele>1315.22</ele>
        <time>2017-05-25T09:26:42Z</time>
      </trkpt>
      <trkpt lat="44.71751" lon="5.48553">
        <ele>1318.1</ele>
        <time>2017-05-25T09:26:59Z</time>
      </trkpt>
      <trkpt lat="44.71752" lon="5.48561">
        <ele>1320.03</ele>
        <time>2017-05-25T09:27:13Z</time>
      </trkpt>
      <trkpt lat="44.71755" lon="5.48576">
        <ele>1322.43</ele>
        <time>2017-05-25T09:27:28Z</time>
      </trkpt>
      <trkpt lat="44.71759" lon="5.48579">
        <ele>1324.83</ele>
        <time>2017-05-25T09:27:44Z</time>
      </trkpt>
      <trkpt lat="44.71764" lon="5.48572">
        <ele>1327.24</ele>
        <time>2017-05-25T09:28:01Z</time>
      </trkpt>
      <trkpt lat="44.71768" lon="5.48563">
        <ele>1329.64</ele>
        <time>2017-05-25T09:28:14Z</time>
      </trkpt>
      <trkpt lat="44.7177" lon="5.4857">
        <ele>1332.04</ele>
        <time>2017-05-25T09:28:30Z</time>
      </trkpt>
      <trkpt lat="44.71771" lon="5.48579">
        <ele>1333.97</ele>
        <time>2017-05-25T09:28:46Z</time>
      </trkpt>
      <trkpt lat="44.71777" lon="5.48575">
        <ele>1336.85</ele>
        <time>2017-05-25T09:29:03Z</time>
      </trkpt>
      <trkpt lat="44.71776" lon="5.48588">
        <ele>1339.73</ele>
        <time>2017-05-25T09:29:22Z</time>
      </trkpt>
      <trkpt lat="44.7178" lon="5.4859">
        <ele>1342.14</ele>
        <time>2017-05-25T09:29:36Z</time>
      </trkpt>
      <trkpt lat="44.71791" lon="5.48577">
        <ele>1344.54</ele>
        <time>2017-05-25T09:29:55Z</time>
      </trkpt>
      <trkpt lat="44.71797" lon="5.48563">
        <ele>1346.46</ele>
        <time>2017-05-25T09:30:11Z</time>
      </trkpt>
      <trkpt lat="44.71799" lon="5.48551">
        <ele>1348.39</ele>
        <time>2017-05-25T09:30:25Z</time>
      </trkpt>
      <trkpt lat="44.71801" lon="5.48538">
        <ele>1349.35</ele>
        <time>2017-05-25T09:30:39Z</time>
      </trkpt>
      <trkpt lat="44.71804" lon="5.48523">
        <ele>1351.27</ele>
        <time>2017-05-25T09:30:53Z</time>
      </trkpt>
      <trkpt lat="44.71807" lon="5.48508">
        <ele>1353.19</ele>
        <time>2017-05-25T09:31:08Z</time>
      </trkpt>
      <trkpt lat="44.71811" lon="5.48495">
        <ele>1355.6</ele>
        <time>2017-05-25T09:31:23Z</time>
      </trkpt>
      <trkpt lat="44.71813" lon="5.4848">
        <ele>1358</ele>
        <time>2017-05-25T09:31:41Z</time>
      </trkpt>
      <trkpt lat="44.71814" lon="5.48468">
        <ele>1360.4</ele>
        <time>2017-05-25T09:31:56Z</time>
      </trkpt>
      <trkpt lat="44.71816" lon="5.48457">
        <ele>1362.33</ele>
        <time>2017-05-25T09:32:11Z</time>
      </trkpt>
      <trkpt lat="44.71817" lon="5.48446">
        <ele>1365.21</ele>
        <time>2017-05-25T09:32:29Z</time>
      </trkpt>
      <trkpt lat="44.71815" lon="5.48433">
        <ele>1367.61</ele>
        <time>2017-05-25T09:32:45Z</time>
      </trkpt>
      <trkpt lat="44.71818" lon="5.4842">
        <ele>1370.02</ele>
        <time>2017-05-25T09:33:02Z</time>
      </trkpt>
      <trkpt lat="44.71818" lon="5.48404">
        <ele>1371.94</ele>
        <time>2017-05-25T09:33:19Z</time>
      </trkpt>
      <trkpt lat="44.7182" lon="5.48388">
        <ele>1373.86</ele>
        <time>2017-05-25T09:33:35Z</time>
      </trkpt>
      <trkpt lat="44.71823" lon="5.48373">
        <ele>1376.26</ele>
        <time>2017-05-25T09:33:52Z</time>
      </trkpt>
      <trkpt lat="44.71827" lon="5.48361">
        <ele>1378.19</ele>
        <time>2017-05-25T09:34:07Z</time>
      </trkpt>
      <trkpt lat="44.71834" lon="5.48355">
        <ele>1381.07</ele>
        <time>2017-05-25T09:34:25Z</time>
      </trkpt>
      <trkpt lat="44.7184" lon="5.48352">
        <ele>1383.96</ele>
        <time>2017-05-25T09:34:40Z</time>
      </trkpt>
      <trkpt lat="44.71846" lon="5.48352">
        <ele>1386.36</ele>
        <time>2017-05-25T09:34:57Z</time>
      </trkpt>
      <trkpt lat="44.71854" lon="5.48351">
        <ele>1388.76</ele>
        <time>2017-05-25T09:35:12Z</time>
      </trkpt>
      <trkpt lat="44.7186" lon="5.4835">
        <ele>1390.68</ele>
        <time>2017-05-25T09:35:29Z</time>
      </trkpt>
      <trkpt lat="44.71863" lon="5.4835">
        <ele>1393.09</ele>
        <time>2017-05-25T09:35:45Z</time>
      </trkpt>
      <trkpt lat="44.71859" lon="5.48362">
        <ele>1395.49</ele>
        <time>2017-05-25T09:36:04Z</time>
      </trkpt>
      <trkpt lat="44.7186" lon="5.4837">
        <ele>1398.37</ele>
        <time>2017-05-25T09:36:19Z</time>
      </trkpt>
      <trkpt lat="44.71867" lon="5.48374">
        <ele>1400.3</ele>
        <time>2017-05-25T09:36:36Z</time>
      </trkpt>
      <trkpt lat="44.71872" lon="5.48375">
        <ele>1402.7</ele>
        <time>2017-05-25T09:36:56Z</time>
      </trkpt>
      <trkpt lat="44.71877" lon="5.48377">
        <ele>1405.58</ele>
        <time>2017-05-25T09:37:11Z</time>
      </trkpt>
      <trkpt lat="44.71884" lon="5.4838">
        <ele>1407.99</ele>
        <time>2017-05-25T09:37:27Z</time>
      </trkpt>
      <trkpt lat="44.71884" lon="5.48385">
        <ele>1410.39</ele>
        <time>2017-05-25T09:37:43Z</time>
      </trkpt>
      <trkpt lat="44.71883" lon="5.48393">
        <ele>1412.31</ele>
        <time>2017-05-25T09:37:58Z</time>
      </trkpt>
      <trkpt lat="44.71886" lon="5.48402">
        <ele>1415.2</ele>
        <time>2017-05-25T09:38:16Z</time>
      </trkpt>
      <trkpt lat="44.71892" lon="5.48404">
        <ele>1417.12</ele>
        <time>2017-05-25T09:38:31Z</time>
      </trkpt>
      <trkpt lat="44.71895" lon="5.48413">
        <ele>1420</ele>
        <time>2017-05-25T09:38:51Z</time>
      </trkpt>
      <trkpt lat="44.719" lon="5.48416">
        <ele>1421.45</ele>
        <time>2017-05-25T09:39:06Z</time>
      </trkpt>
      <trkpt lat="44.71902" lon="5.48423">
        <ele>1423.37</ele>
        <time>2017-05-25T09:39:19Z</time>
      </trkpt>
      <trkpt lat="44.71902" lon="5.48431">
        <ele>1425.29</ele>
        <time>2017-05-25T09:39:35Z</time>
      </trkpt>
      <trkpt lat="44.71908" lon="5.48443">
        <ele>1428.18</ele>
        <time>2017-05-25T09:39:52Z</time>
      </trkpt>
      <trkpt lat="44.71911" lon="5.48443">
        <ele>1430.1</ele>
        <time>2017-05-25T09:40:07Z</time>
      </trkpt>
      <trkpt lat="44.71916" lon="5.48446">
        <ele>1432.5</ele>
        <time>2017-05-25T09:40:24Z</time>
      </trkpt>
      <trkpt lat="44.7192" lon="5.48455">
        <ele>1434.91</ele>
        <time>2017-05-25T09:40:41Z</time>
      </trkpt>
      <trkpt lat="44.71923" lon="5.48461">
        <ele>1437.31</ele>
        <time>2017-05-25T09:40:56Z</time>
      </trkpt>
      <trkpt lat="44.71926" lon="5.48472">
        <ele>1439.71</ele>
        <time>2017-05-25T09:41:13Z</time>
      </trkpt>
      <trkpt lat="44.71929" lon="5.48478">
        <ele>1441.63</ele>
        <time>2017-05-25T09:41:28Z</time>
      </trkpt>
      <trkpt lat="44.71931" lon="5.48487">
        <ele>1444.04</ele>
        <time>2017-05-25T09:41:44Z</time>
      </trkpt>
      <trkpt lat="44.71938" lon="5.48489">
        <ele>1446.44</ele>
        <time>2017-05-25T09:41:59Z</time>
      </trkpt>
      <trkpt lat="44.71941" lon="5.48484">
        <ele>1448.84</ele>
        <time>2017-05-25T09:42:17Z</time>
      </trkpt>
      <trkpt lat="44.71944" lon="5.48489">
        <ele>1451.25</ele>
        <time>2017-05-25T09:42:33Z</time>
      </trkpt>
      <trkpt lat="44.71945" lon="5.48496">
        <ele>1454.61</ele>
        <time>2017-05-25T09:42:50Z</time>
      </trkpt>
      <trkpt lat="44.7195" lon="5.48505">
        <ele>1456.53</ele>
        <time>2017-05-25T09:43:06Z</time>
      </trkpt>
      <trkpt lat="44.71958" lon="5.485">
        <ele>1458.94</ele>
        <time>2017-05-25T09:43:24Z</time>
      </trkpt>
      <trkpt lat="44.71964" lon="5.48492">
        <ele>1460.86</ele>
        <time>2017-05-25T09:43:38Z</time>
      </trkpt>
      <trkpt lat="44.71968" lon="5.4849">
        <ele>1463.26</ele>
        <time>2017-05-25T09:43:53Z</time>
      </trkpt>
      <trkpt lat="44.71972" lon="5.48494">
        <ele>1466.15</ele>
        <time>2017-05-25T09:44:11Z</time>
      </trkpt>
      <trkpt lat="44.71978" lon="5.48496">
        <ele>1468.07</ele>
        <time>2017-05-25T09:44:22Z</time>
      </trkpt>
      <trkpt lat="44.71986" lon="5.48495">
        <ele>1469.51</ele>
        <time>2017-05-25T09:44:38Z</time>
      </trkpt>
      <trkpt lat="44.71997" lon="5.48495">
        <ele>1471.44</ele>
        <time>2017-05-25T09:44:55Z</time>
      </trkpt>
      <trkpt lat="44.72006" lon="5.48485">
        <ele>1473.84</ele>
        <time>2017-05-25T09:45:15Z</time>
      </trkpt>
      <trkpt lat="44.72013" lon="5.4848">
        <ele>1475.28</ele>
        <time>2017-05-25T09:45:29Z</time>
      </trkpt>
      <trkpt lat="44.72018" lon="5.48475">
        <ele>1477.68</ele>
        <time>2017-05-25T09:45:45Z</time>
      </trkpt>
      <trkpt lat="44.72023" lon="5.4847">
        <ele>1480.57</ele>
        <time>2017-05-25T09:46:01Z</time>
      </trkpt>
      <trkpt lat="44.72029" lon="5.48469">
        <ele>1481.53</ele>
        <time>2017-05-25T09:46:15Z</time>
      </trkpt>
      <trkpt lat="44.72038" lon="5.48467">
        <ele>1483.45</ele>
        <time>2017-05-25T09:46:32Z</time>
      </trkpt>
      <trkpt lat="44.72046" lon="5.48468">
        <ele>1485.37</ele>
        <time>2017-05-25T09:46:45Z</time>
      </trkpt>
      <trkpt lat="44.72053" lon="5.48469">
        <ele>1487.3</ele>
        <time>2017-05-25T09:47:00Z</time>
      </trkpt>
      <trkpt lat="44.72057" lon="5.48468">
        <ele>1489.22</ele>
        <time>2017-05-25T09:47:14Z</time>
      </trkpt>
      <trkpt lat="44.72061" lon="5.48473">
        <ele>1492.1</ele>
        <time>2017-05-25T09:47:30Z</time>
      </trkpt>
      <trkpt lat="44.72053" lon="5.48476">
        <ele>1494.51</ele>
        <time>2017-05-25T09:47:49Z</time>
      </trkpt>
      <trkpt lat="44.7206" lon="5.48478">
        <ele>1496.91</ele>
        <time>2017-05-25T09:48:06Z</time>
      </trkpt>
      <trkpt lat="44.72069" lon="5.48474">
        <ele>1498.83</ele>
        <time>2017-05-25T09:48:23Z</time>
      </trkpt>
      <trkpt lat="44.72076" lon="5.48471">
        <ele>1500.76</ele>
        <time>2017-05-25T09:48:37Z</time>
      </trkpt>
      <trkpt lat="44.72082" lon="5.48469">
        <ele>1502.68</ele>
        <time>2017-05-25T09:48:52Z</time>
      </trkpt>
      <trkpt lat="44.72088" lon="5.48471">
        <ele>1504.6</ele>
        <time>2017-05-25T09:49:04Z</time>
      </trkpt>
      <trkpt lat="44.72086" lon="5.48473">
        <ele>1506.52</ele>
        <time>2017-05-25T09:49:19Z</time>
      </trkpt>
      <trkpt lat="44.72083" lon="5.48479">
        <ele>1508.45</ele>
        <time>2017-05-25T09:49:34Z</time>
      </trkpt>
      <trkpt lat="44.72082" lon="5.48485">
        <ele>1510.85</ele>
        <time>2017-05-25T09:49:50Z</time>
      </trkpt>
      <trkpt lat="44.72087" lon="5.48486">
        <ele>1513.25</ele>
        <time>2017-05-25T09:50:06Z</time>
      </trkpt>
      <trkpt lat="44.72093" lon="5.4849">
        <ele>1514.69</ele>
        <time>2017-05-25T09:50:20Z</time>
      </trkpt>
      <trkpt lat="44.721" lon="5.48491">
        <ele>1517.1</ele>
        <time>2017-05-25T09:50:33Z</time>
      </trkpt>
      <trkpt lat="44.72106" lon="5.4849">
        <ele>1518.54</ele>
        <time>2017-05-25T09:50:46Z</time>
      </trkpt>
      <trkpt lat="44.72114" lon="5.48486">
        <ele>1520.46</ele>
        <time>2017-05-25T09:51:03Z</time>
      </trkpt>
      <trkpt lat="44.72117" lon="5.48488">
        <ele>1523.35</ele>
        <time>2017-05-25T09:51:20Z</time>
      </trkpt>
      <trkpt lat="44.72124" lon="5.4849">
        <ele>1525.27</ele>
        <time>2017-05-25T09:51:35Z</time>
      </trkpt>
      <trkpt lat="44.72124" lon="5.48495">
        <ele>1527.67</ele>
        <time>2017-05-25T09:51:52Z</time>
      </trkpt>
      <trkpt lat="44.72123" lon="5.485">
        <ele>1530.08</ele>
        <time>2017-05-25T09:52:09Z</time>
      </trkpt>
      <trkpt lat="44.72129" lon="5.48505">
        <ele>1532.48</ele>
        <time>2017-05-25T09:52:26Z</time>
      </trkpt>
      <trkpt lat="44.72136" lon="5.48505">
        <ele>1534.88</ele>
        <time>2017-05-25T09:52:41Z</time>
      </trkpt>
      <trkpt lat="44.72143" lon="5.48506">
        <ele>1536.8</ele>
        <time>2017-05-25T09:52:59Z</time>
      </trkpt>
      <trkpt lat="44.72147" lon="5.4851">
        <ele>1539.69</ele>
        <time>2017-05-25T09:53:15Z</time>
      </trkpt>
      <trkpt lat="44.72153" lon="5.48509">
        <ele>1541.61</ele>
        <time>2017-05-25T09:53:32Z</time>
      </trkpt>
      <trkpt lat="44.7216" lon="5.48506">
        <ele>1544.5</ele>
        <time>2017-05-25T09:53:50Z</time>
      </trkpt>
      <trkpt lat="44.72167" lon="5.48505">
        <ele>1546.9</ele>
        <time>2017-05-25T09:54:04Z</time>
      </trkpt>
      <trkpt lat="44.72174" lon="5.48503">
        <ele>1549.3</ele>
        <time>2017-05-25T09:54:19Z</time>
      </trkpt>
      <trkpt lat="44.72181" lon="5.48502">
        <ele>1551.22</ele>
        <time>2017-05-25T09:54:37Z</time>
      </trkpt>
      <trkpt lat="44.72177" lon="5.48509">
        <ele>1553.63</ele>
        <time>2017-05-25T09:54:52Z</time>
      </trkpt>
      <trkpt lat="44.7218" lon="5.48513">
        <ele>1555.55</ele>
        <time>2017-05-25T09:55:04Z</time>
      </trkpt>
      <trkpt lat="44.72187" lon="5.48517">
        <ele>1556.99</ele>
        <time>2017-05-25T09:55:18Z</time>
      </trkpt>
      <trkpt lat="44.72186" lon="5.48521">
        <ele>1558.92</ele>
        <time>2017-05-25T09:55:30Z</time>
      </trkpt>
      <trkpt lat="44.72183" lon="5.48532">
        <ele>1560.84</ele>
        <time>2017-05-25T09:55:44Z</time>
      </trkpt>
      <trkpt lat="44.72179" lon="5.48539">
        <ele>1562.76</ele>
        <time>2017-05-25T09:55:57Z</time>
      </trkpt>
      <trkpt lat="44.72173" lon="5.48548">
        <ele>1565.16</ele>
        <time>2017-05-25T09:56:14Z</time>
      </trkpt>
      <trkpt lat="44.7217" lon="5.48554">
        <ele>1567.09</ele>
        <time>2017-05-25T09:56:27Z</time>
      </trkpt>
      <trkpt lat="44.72168" lon="5.48559">
        <ele>1569.01</ele>
        <time>2017-05-25T09:56:42Z</time>
      </trkpt>
      <trkpt lat="44.72174" lon="5.48562">
        <ele>1570.93</ele>
        <time>2017-05-25T09:56:59Z</time>
      </trkpt>
      <trkpt lat="44.72172" lon="5.48567">
        <ele>1572.85</ele>
        <time>2017-05-25T09:57:16Z</time>
      </trkpt>
      <trkpt lat="44.72171" lon="5.48574">
        <ele>1575.26</ele>
        <time>2017-05-25T09:57:30Z</time>
      </trkpt>
      <trkpt lat="44.72172" lon="5.48577">
        <ele>1577.66</ele>
        <time>2017-05-25T09:57:46Z</time>
      </trkpt>
      <trkpt lat="44.7217" lon="5.48585">
        <ele>1580.06</ele>
        <time>2017-05-25T09:58:03Z</time>
      </trkpt>
      <trkpt lat="44.72165" lon="5.48593">
        <ele>1581.99</ele>
        <time>2017-05-25T09:58:19Z</time>
      </trkpt>
      <trkpt lat="44.72163" lon="5.48599">
        <ele>1583.91</ele>
        <time>2017-05-25T09:58:31Z</time>
      </trkpt>
      <trkpt lat="44.72159" lon="5.48605">
        <ele>1586.31</ele>
        <time>2017-05-25T09:58:48Z</time>
      </trkpt>
      <trkpt lat="44.72157" lon="5.48613">
        <ele>1588.72</ele>
        <time>2017-05-25T09:59:06Z</time>
      </trkpt>
      <trkpt lat="44.72155" lon="5.48623">
        <ele>1591.12</ele>
        <time>2017-05-25T09:59:22Z</time>
      </trkpt>
      <trkpt lat="44.72151" lon="5.48631">
        <ele>1593.04</ele>
        <time>2017-05-25T09:59:39Z</time>
      </trkpt>
      <trkpt lat="44.72146" lon="5.48639">
        <ele>1594.96</ele>
        <time>2017-05-25T09:59:52Z</time>
      </trkpt>
      <trkpt lat="44.72135" lon="5.48647">
        <ele>1596.41</ele>
        <time>2017-05-25T10:00:09Z</time>
      </trkpt>
      <trkpt lat="44.72127" lon="5.48656">
        <ele>1598.33</ele>
        <time>2017-05-25T10:00:24Z</time>
      </trkpt>
      <trkpt lat="44.72121" lon="5.48662">
        <ele>1600.25</ele>
        <time>2017-05-25T10:00:38Z</time>
      </trkpt>
      <trkpt lat="44.72117" lon="5.48668">
        <ele>1602.17</ele>
        <time>2017-05-25T10:00:52Z</time>
      </trkpt>
      <trkpt lat="44.72114" lon="5.48679">
        <ele>1604.58</ele>
        <time>2017-05-25T10:01:08Z</time>
      </trkpt>
      <trkpt lat="44.72108" lon="5.48684">
        <ele>1606.5</ele>
        <time>2017-05-25T10:01:23Z</time>
      </trkpt>
      <trkpt lat="44.72103" lon="5.48691">
        <ele>1609.38</ele>
        <time>2017-05-25T10:01:40Z</time>
      </trkpt>
      <trkpt lat="44.721" lon="5.48697">
        <ele>1611.79</ele>
        <time>2017-05-25T10:01:57Z</time>
      </trkpt>
      <trkpt lat="44.72094" lon="5.48703">
        <ele>1614.67</ele>
        <time>2017-05-25T10:02:16Z</time>
      </trkpt>
      <trkpt lat="44.72088" lon="5.48709">
        <ele>1617.07</ele>
        <time>2017-05-25T10:02:33Z</time>
      </trkpt>
      <trkpt lat="44.72085" lon="5.48716">
        <ele>1619</ele>
        <time>2017-05-25T10:02:49Z</time>
      </trkpt>
      <trkpt lat="44.72091" lon="5.48724">
        <ele>1621.88</ele>
        <time>2017-05-25T10:03:08Z</time>
      </trkpt>
      <trkpt lat="44.72101" lon="5.48725">
        <ele>1624.28</ele>
        <time>2017-05-25T10:03:27Z</time>
      </trkpt>
      <trkpt lat="44.72108" lon="5.48727">
        <ele>1626.69</ele>
        <time>2017-05-25T10:03:43Z</time>
      </trkpt>
      <trkpt lat="44.72102" lon="5.48733">
        <ele>1629.09</ele>
        <time>2017-05-25T10:04:00Z</time>
      </trkpt>
      <trkpt lat="44.72094" lon="5.48741">
        <ele>1631.01</ele>
        <time>2017-05-25T10:04:18Z</time>
      </trkpt>
      <trkpt lat="44.72101" lon="5.48743">
        <ele>1633.9</ele>
        <time>2017-05-25T10:04:38Z</time>
      </trkpt>
      <trkpt lat="44.72103" lon="5.4875">
        <ele>1635.82</ele>
        <time>2017-05-25T10:04:55Z</time>
      </trkpt>
      <trkpt lat="44.72099" lon="5.48755">
        <ele>1638.22</ele>
        <time>2017-05-25T10:05:12Z</time>
      </trkpt>
      <trkpt lat="44.72098" lon="5.48759">
        <ele>1640.63</ele>
        <time>2017-05-25T10:05:27Z</time>
      </trkpt>
      <trkpt lat="44.72092" lon="5.48761">
        <ele>1643.03</ele>
        <time>2017-05-25T10:05:44Z</time>
      </trkpt>
      <trkpt lat="44.72088" lon="5.48765">
        <ele>1644.95</ele>
        <time>2017-05-25T10:05:59Z</time>
      </trkpt>
      <trkpt lat="44.72089" lon="5.48771">
        <ele>1647.36</ele>
        <time>2017-05-25T10:06:14Z</time>
      </trkpt>
      <trkpt lat="44.72082" lon="5.48774">
        <ele>1649.76</ele>
        <time>2017-05-25T10:06:33Z</time>
      </trkpt>
      <trkpt lat="44.72082" lon="5.4878">
        <ele>1652.16</ele>
        <time>2017-05-25T10:06:50Z</time>
      </trkpt>
      <trkpt lat="44.72089" lon="5.48781">
        <ele>1654.57</ele>
        <time>2017-05-25T10:07:08Z</time>
      </trkpt>
      <trkpt lat="44.72095" lon="5.48783">
        <ele>1656.01</ele>
        <time>2017-05-25T10:07:25Z</time>
      </trkpt>
      <trkpt lat="44.72096" lon="5.48785">
        <ele>1656.49</ele>
        <time>2017-05-25T10:07:52Z</time>
      </trkpt>
      <trkpt lat="44.72095" lon="5.48786">
        <ele>1656.97</ele>
        <time>2017-05-25T10:08:27Z</time>
      </trkpt>
      <trkpt lat="44.72092" lon="5.48789">
        <ele>1657.45</ele>
        <time>2017-05-25T10:08:50Z</time>
      </trkpt>
      <trkpt lat="44.72085" lon="5.48795">
        <ele>1658.41</ele>
        <time>2017-05-25T10:09:04Z</time>
      </trkpt>
      <trkpt lat="44.72075" lon="5.48798">
        <ele>1661.3</ele>
        <time>2017-05-25T10:09:21Z</time>
      </trkpt>
      <trkpt lat="44.72067" lon="5.48801">
        <ele>1663.7</ele>
        <time>2017-05-25T10:09:37Z</time>
      </trkpt>
      <trkpt lat="44.7206" lon="5.48805">
        <ele>1665.62</ele>
        <time>2017-05-25T10:09:50Z</time>
      </trkpt>
      <trkpt lat="44.72051" lon="5.48807">
        <ele>1667.06</ele>
        <time>2017-05-25T10:10:05Z</time>
      </trkpt>
      <trkpt lat="44.72041" lon="5.4881">
        <ele>1668.99</ele>
        <time>2017-05-25T10:10:22Z</time>
      </trkpt>
      <trkpt lat="44.7203" lon="5.48816">
        <ele>1671.39</ele>
        <time>2017-05-25T10:10:39Z</time>
      </trkpt>
      <trkpt lat="44.72036" lon="5.48818">
        <ele>1673.31</ele>
        <time>2017-05-25T10:10:55Z</time>
      </trkpt>
      <trkpt lat="44.72047" lon="5.48824">
        <ele>1676.2</ele>
        <time>2017-05-25T10:11:15Z</time>
      </trkpt>
      <trkpt lat="44.72039" lon="5.48831">
        <ele>1678.6</ele>
        <time>2017-05-25T10:11:34Z</time>
      </trkpt>
      <trkpt lat="44.7204" lon="5.48835">
        <ele>1680.52</ele>
        <time>2017-05-25T10:11:49Z</time>
      </trkpt>
      <trkpt lat="44.72048" lon="5.48837">
        <ele>1682.44</ele>
        <time>2017-05-25T10:12:05Z</time>
      </trkpt>
      <trkpt lat="44.72057" lon="5.48842">
        <ele>1684.37</ele>
        <time>2017-05-25T10:12:23Z</time>
      </trkpt>
      <trkpt lat="44.72067" lon="5.48846">
        <ele>1686.77</ele>
        <time>2017-05-25T10:12:41Z</time>
      </trkpt>
      <trkpt lat="44.72074" lon="5.48849">
        <ele>1688.69</ele>
        <time>2017-05-25T10:12:57Z</time>
      </trkpt>
      <trkpt lat="44.72078" lon="5.48852">
        <ele>1691.1</ele>
        <time>2017-05-25T10:13:12Z</time>
      </trkpt>
      <trkpt lat="44.72071" lon="5.48859">
        <ele>1693.02</ele>
        <time>2017-05-25T10:13:28Z</time>
      </trkpt>
      <trkpt lat="44.72069" lon="5.48862">
        <ele>1694.94</ele>
        <time>2017-05-25T10:13:44Z</time>
      </trkpt>
      <trkpt lat="44.72073" lon="5.48868">
        <ele>1697.83</ele>
        <time>2017-05-25T10:14:02Z</time>
      </trkpt>
      <trkpt lat="44.72083" lon="5.4887">
        <ele>1700.23</ele>
        <time>2017-05-25T10:14:20Z</time>
      </trkpt>
      <trkpt lat="44.72089" lon="5.48874">
        <ele>1702.63</ele>
        <time>2017-05-25T10:14:37Z</time>
      </trkpt>
      <trkpt lat="44.72091" lon="5.48879">
        <ele>1704.55</ele>
        <time>2017-05-25T10:14:54Z</time>
      </trkpt>
      <trkpt lat="44.72087" lon="5.48884">
        <ele>1706.96</ele>
        <time>2017-05-25T10:15:10Z</time>
      </trkpt>
      <trkpt lat="44.72081" lon="5.4889">
        <ele>1708.4</ele>
        <time>2017-05-25T10:15:26Z</time>
      </trkpt>
      <trkpt lat="44.72086" lon="5.48893">
        <ele>1710.8</ele>
        <time>2017-05-25T10:15:41Z</time>
      </trkpt>
      <trkpt lat="44.72092" lon="5.48896">
        <ele>1713.21</ele>
        <time>2017-05-25T10:15:59Z</time>
      </trkpt>
      <trkpt lat="44.721" lon="5.48898">
        <ele>1715.61</ele>
        <time>2017-05-25T10:16:15Z</time>
      </trkpt>
      <trkpt lat="44.72108" lon="5.48898">
        <ele>1717.53</ele>
        <time>2017-05-25T10:16:32Z</time>
      </trkpt>
      <trkpt lat="44.72116" lon="5.48902">
        <ele>1719.94</ele>
        <time>2017-05-25T10:16:49Z</time>
      </trkpt>
      <trkpt lat="44.72123" lon="5.48904">
        <ele>1722.82</ele>
        <time>2017-05-25T10:17:08Z</time>
      </trkpt>
      <trkpt lat="44.72133" lon="5.48904">
        <ele>1724.74</ele>
        <time>2017-05-25T10:17:27Z</time>
      </trkpt>
      <trkpt lat="44.7213" lon="5.48911">
        <ele>1726.67</ele>
        <time>2017-05-25T10:17:44Z</time>
      </trkpt>
      <trkpt lat="44.72122" lon="5.48917">
        <ele>1728.11</ele>
        <time>2017-05-25T10:17:58Z</time>
      </trkpt>
      <trkpt lat="44.72115" lon="5.48924">
        <ele>1730.03</ele>
        <time>2017-05-25T10:18:15Z</time>
      </trkpt>
      <trkpt lat="44.72104" lon="5.48925">
        <ele>1731.95</ele>
        <time>2017-05-25T10:18:32Z</time>
      </trkpt>
      <trkpt lat="44.72104" lon="5.48932">
        <ele>1734.36</ele>
        <time>2017-05-25T10:18:47Z</time>
      </trkpt>
      <trkpt lat="44.7211" lon="5.48939">
        <ele>1736.28</ele>
        <time>2017-05-25T10:19:03Z</time>
      </trkpt>
      <trkpt lat="44.72114" lon="5.48941">
        <ele>1742.05</ele>
        <time>2017-05-25T10:28:39Z</time>
      </trkpt>
      <trkpt lat="44.72122" lon="5.48939">
        <ele>1740.6</ele>
        <time>2017-05-25T10:28:54Z</time>
      </trkpt>
      <trkpt lat="44.72134" lon="5.48935">
        <ele>1741.08</ele>
        <time>2017-05-25T10:29:07Z</time>
      </trkpt>
      <trkpt lat="44.7214" lon="5.48933">
        <ele>1742.53</ele>
        <time>2017-05-25T10:29:14Z</time>
      </trkpt>
      <trkpt lat="44.72153" lon="5.48932">
        <ele>1743.49</ele>
        <time>2017-05-25T10:29:28Z</time>
      </trkpt>
      <trkpt lat="44.72165" lon="5.48929">
        <ele>1745.89</ele>
        <time>2017-05-25T10:29:44Z</time>
      </trkpt>
      <trkpt lat="44.72177" lon="5.48925">
        <ele>1747.33</ele>
        <time>2017-05-25T10:30:00Z</time>
      </trkpt>
      <trkpt lat="44.72187" lon="5.48924">
        <ele>1749.26</ele>
        <time>2017-05-25T10:30:15Z</time>
      </trkpt>
      <trkpt lat="44.72199" lon="5.4892">
        <ele>1751.18</ele>
        <time>2017-05-25T10:30:31Z</time>
      </trkpt>
      <trkpt lat="44.72214" lon="5.48917">
        <ele>1752.62</ele>
        <time>2017-05-25T10:30:49Z</time>
      </trkpt>
      <trkpt lat="44.72225" lon="5.48917">
        <ele>1755.99</ele>
        <time>2017-05-25T10:31:06Z</time>
      </trkpt>
      <trkpt lat="44.72234" lon="5.48916">
        <ele>1757.43</ele>
        <time>2017-05-25T10:31:22Z</time>
      </trkpt>
      <trkpt lat="44.72244" lon="5.48913">
        <ele>1759.35</ele>
        <time>2017-05-25T10:31:38Z</time>
      </trkpt>
      <trkpt lat="44.72254" lon="5.48913">
        <ele>1761.27</ele>
        <time>2017-05-25T10:31:54Z</time>
      </trkpt>
      <trkpt lat="44.72265" lon="5.48909">
        <ele>1763.2</ele>
        <time>2017-05-25T10:32:12Z</time>
      </trkpt>
      <trkpt lat="44.72276" lon="5.48909">
        <ele>1765.12</ele>
        <time>2017-05-25T10:32:28Z</time>
      </trkpt>
      <trkpt lat="44.72288" lon="5.48909">
        <ele>1768</ele>
        <time>2017-05-25T10:32:47Z</time>
      </trkpt>
      <trkpt lat="44.72299" lon="5.48906">
        <ele>1769.92</ele>
        <time>2017-05-25T10:33:05Z</time>
      </trkpt>
      <trkpt lat="44.7231" lon="5.48901">
        <ele>1771.37</ele>
        <time>2017-05-25T10:33:22Z</time>
      </trkpt>
      <trkpt lat="44.72322" lon="5.48898">
        <ele>1772.81</ele>
        <time>2017-05-25T10:33:37Z</time>
      </trkpt>
      <trkpt lat="44.72336" lon="5.48894">
        <ele>1774.73</ele>
        <time>2017-05-25T10:33:54Z</time>
      </trkpt>
      <trkpt lat="44.72344" lon="5.489">
        <ele>1776.17</ele>
        <time>2017-05-25T10:34:11Z</time>
      </trkpt>
      <trkpt lat="44.72347" lon="5.48901">
        <ele>1776.65</ele>
        <time>2017-05-25T10:35:50Z</time>
      </trkpt>
      <trkpt lat="44.72349" lon="5.48903">
        <ele>1776.65</ele>
        <time>2017-05-25T10:36:10Z</time>
      </trkpt>
      <trkpt lat="44.72356" lon="5.48905">
        <ele>1776.65</ele>
        <time>2017-05-25T10:36:28Z</time>
      </trkpt>
      <trkpt lat="44.7236" lon="5.48907">
        <ele>1775.21</ele>
        <time>2017-05-25T10:36:35Z</time>
      </trkpt>
      <trkpt lat="44.72376" lon="5.48918">
        <ele>1774.73</ele>
        <time>2017-05-25T10:36:54Z</time>
      </trkpt>
      <trkpt lat="44.72379" lon="5.48921">
        <ele>1773.29</ele>
        <time>2017-05-25T10:36:58Z</time>
      </trkpt>
      <trkpt lat="44.72396" lon="5.48938">
        <ele>1771.37</ele>
        <time>2017-05-25T10:37:17Z</time>
      </trkpt>
      <trkpt lat="44.72412" lon="5.48956">
        <ele>1770.41</ele>
        <time>2017-05-25T10:37:35Z</time>
      </trkpt>
      <trkpt lat="44.72427" lon="5.48973">
        <ele>1768.96</ele>
        <time>2017-05-25T10:37:52Z</time>
      </trkpt>
      <trkpt lat="44.7243" lon="5.48974">
        <ele>1768.48</ele>
        <time>2017-05-25T10:37:55Z</time>
      </trkpt>
      <trkpt lat="44.72435" lon="5.48977">
        <ele>1768</ele>
        <time>2017-05-25T10:37:59Z</time>
      </trkpt>
      <trkpt lat="44.72455" lon="5.48982">
        <ele>1765.12</ele>
        <time>2017-05-25T10:38:18Z</time>
      </trkpt>
      <trkpt lat="44.72462" lon="5.48986">
        <ele>1764.64</ele>
        <time>2017-05-25T10:38:25Z</time>
      </trkpt>
      <trkpt lat="44.72475" lon="5.48992">
        <ele>1761.75</ele>
        <time>2017-05-25T10:38:39Z</time>
      </trkpt>
      <trkpt lat="44.72493" lon="5.48993">
        <ele>1761.27</ele>
        <time>2017-05-25T10:38:56Z</time>
      </trkpt>
      <trkpt lat="44.72513" lon="5.48992">
        <ele>1760.31</ele>
        <time>2017-05-25T10:39:14Z</time>
      </trkpt>
      <trkpt lat="44.72533" lon="5.4899">
        <ele>1759.35</ele>
        <time>2017-05-25T10:39:32Z</time>
      </trkpt>
      <trkpt lat="44.72554" lon="5.48988">
        <ele>1758.39</ele>
        <time>2017-05-25T10:39:50Z</time>
      </trkpt>
      <trkpt lat="44.72575" lon="5.48987">
        <ele>1758.39</ele>
        <time>2017-05-25T10:40:07Z</time>
      </trkpt>
      <trkpt lat="44.72591" lon="5.48987">
        <ele>1757.91</ele>
        <time>2017-05-25T10:40:22Z</time>
      </trkpt>
      <trkpt lat="44.7261" lon="5.48985">
        <ele>1757.43</ele>
        <time>2017-05-25T10:40:41Z</time>
      </trkpt>
      <trkpt lat="44.72629" lon="5.48985">
        <ele>1756.47</ele>
        <time>2017-05-25T10:40:58Z</time>
      </trkpt>
      <trkpt lat="44.72648" lon="5.48986">
        <ele>1755.99</ele>
        <time>2017-05-25T10:41:15Z</time>
      </trkpt>
      <trkpt lat="44.72665" lon="5.48986">
        <ele>1755.02</ele>
        <time>2017-05-25T10:41:30Z</time>
      </trkpt>
      <trkpt lat="44.72682" lon="5.48986">
        <ele>1754.54</ele>
        <time>2017-05-25T10:41:46Z</time>
      </trkpt>
      <trkpt lat="44.72684" lon="5.48988">
        <ele>1755.99</ele>
        <time>2017-05-25T10:41:49Z</time>
      </trkpt>
      <trkpt lat="44.72702" lon="5.48991">
        <ele>1756.95</ele>
        <time>2017-05-25T10:42:06Z</time>
      </trkpt>
      <trkpt lat="44.7271" lon="5.48995">
        <ele>1755.5</ele>
        <time>2017-05-25T10:42:14Z</time>
      </trkpt>
      <trkpt lat="44.72729" lon="5.49006">
        <ele>1753.1</ele>
        <time>2017-05-25T10:42:33Z</time>
      </trkpt>
      <trkpt lat="44.72745" lon="5.49013">
        <ele>1753.1</ele>
        <time>2017-05-25T10:42:49Z</time>
      </trkpt>
      <trkpt lat="44.72747" lon="5.49015">
        <ele>1753.1</ele>
        <time>2017-05-25T10:42:52Z</time>
      </trkpt>
      <trkpt lat="44.72754" lon="5.49018">
        <ele>1754.06</ele>
        <time>2017-05-25T10:43:01Z</time>
      </trkpt>
      <trkpt lat="44.72763" lon="5.49017">
        <ele>1755.5</ele>
        <time>2017-05-25T10:43:18Z</time>
      </trkpt>
      <trkpt lat="44.72757" lon="5.49016">
        <ele>1764.16</ele>
        <time>2017-05-25T12:33:29Z</time>
      </trkpt>
      <trkpt lat="44.72757" lon="5.49016">
        <ele>1764.16</ele>
        <time>2017-05-25T12:33:33Z</time>
      </trkpt>
      <trkpt lat="44.72757" lon="5.49016">
        <ele>1763.68</ele>
        <time>2017-05-25T12:33:40Z</time>
      </trkpt>
      <trkpt lat="44.72758" lon="5.49017">
        <ele>1765.6</ele>
        <time>2017-05-25T12:33:53Z</time>
      </trkpt>
      <trkpt lat="44.72759" lon="5.49018">
        <ele>1764.16</ele>
        <time>2017-05-25T12:34:11Z</time>
      </trkpt>
      <trkpt lat="44.7276" lon="5.49019">
        <ele>1764.16</ele>
        <time>2017-05-25T12:34:34Z</time>
      </trkpt>
      <trkpt lat="44.72759" lon="5.49019">
        <ele>1764.16</ele>
        <time>2017-05-25T12:34:55Z</time>
      </trkpt>
      <trkpt lat="44.72759" lon="5.4902">
        <ele>1764.16</ele>
        <time>2017-05-25T12:35:14Z</time>
      </trkpt>
      <trkpt lat="44.72759" lon="5.49021">
        <ele>1764.16</ele>
        <time>2017-05-25T12:35:34Z</time>
      </trkpt>
      <trkpt lat="44.72758" lon="5.49021">
        <ele>1764.16</ele>
        <time>2017-05-25T12:35:50Z</time>
      </trkpt>
      <trkpt lat="44.72758" lon="5.4902">
        <ele>1764.16</ele>
        <time>2017-05-25T12:36:12Z</time>
      </trkpt>
      <trkpt lat="44.72758" lon="5.49021">
        <ele>1764.16</ele>
        <time>2017-05-25T12:36:29Z</time>
      </trkpt>
      <trkpt lat="44.72759" lon="5.49022">
        <ele>1764.16</ele>
        <time>2017-05-25T12:36:51Z</time>
      </trkpt>
      <trkpt lat="44.72762" lon="5.49019">
        <ele>1764.16</ele>
        <time>2017-05-25T12:37:13Z</time>
      </trkpt>
      <trkpt lat="44.7276" lon="5.49017">
        <ele>1764.16</ele>
        <time>2017-05-25T12:37:33Z</time>
      </trkpt>
      <trkpt lat="44.72758" lon="5.49017">
        <ele>1764.16</ele>
        <time>2017-05-25T12:37:40Z</time>
      </trkpt>
      <trkpt lat="44.72753" lon="5.49024">
        <ele>1764.16</ele>
        <time>2017-05-25T12:37:56Z</time>
      </trkpt>
      <trkpt lat="44.72751" lon="5.49025">
        <ele>1764.16</ele>
        <time>2017-05-25T12:37:58Z</time>
      </trkpt>
      <trkpt lat="44.72736" lon="5.4903">
        <ele>1765.6</ele>
        <time>2017-05-25T12:38:14Z</time>
      </trkpt>
      <trkpt lat="44.72721" lon="5.49029">
        <ele>1767.04</ele>
        <time>2017-05-25T12:38:29Z</time>
      </trkpt>
      <trkpt lat="44.72708" lon="5.49033">
        <ele>1769.92</ele>
        <time>2017-05-25T12:38:43Z</time>
      </trkpt>
      <trkpt lat="44.72703" lon="5.49038">
        <ele>1769.92</ele>
        <time>2017-05-25T12:38:55Z</time>
      </trkpt>
      <trkpt lat="44.727" lon="5.4904">
        <ele>1769.92</ele>
        <time>2017-05-25T12:38:59Z</time>
      </trkpt>
      <trkpt lat="44.72682" lon="5.49049">
        <ele>1768</ele>
        <time>2017-05-25T12:39:16Z</time>
      </trkpt>
      <trkpt lat="44.72664" lon="5.49058">
        <ele>1768.48</ele>
        <time>2017-05-25T12:39:34Z</time>
      </trkpt>
      <trkpt lat="44.72644" lon="5.49069">
        <ele>1768</ele>
        <time>2017-05-25T12:39:53Z</time>
      </trkpt>
      <trkpt lat="44.72638" lon="5.49072">
        <ele>1769.44</ele>
        <time>2017-05-25T12:40:00Z</time>
      </trkpt>
      <trkpt lat="44.72626" lon="5.49075">
        <ele>1771.37</ele>
        <time>2017-05-25T12:40:13Z</time>
      </trkpt>
      <trkpt lat="44.72612" lon="5.49078">
        <ele>1773.77</ele>
        <time>2017-05-25T12:40:28Z</time>
      </trkpt>
      <trkpt lat="44.72597" lon="5.49081">
        <ele>1771.85</ele>
        <time>2017-05-25T12:40:42Z</time>
      </trkpt>
      <trkpt lat="44.7258" lon="5.49084">
        <ele>1770.89</ele>
        <time>2017-05-25T12:40:57Z</time>
      </trkpt>
      <trkpt lat="44.72562" lon="5.49085">
        <ele>1771.37</ele>
        <time>2017-05-25T12:41:13Z</time>
      </trkpt>
      <trkpt lat="44.72548" lon="5.49083">
        <ele>1772.81</ele>
        <time>2017-05-25T12:41:26Z</time>
      </trkpt>
      <trkpt lat="44.72535" lon="5.49082">
        <ele>1774.25</ele>
        <time>2017-05-25T12:41:38Z</time>
      </trkpt>
      <trkpt lat="44.72522" lon="5.4908">
        <ele>1776.65</ele>
        <time>2017-05-25T12:41:52Z</time>
      </trkpt>
      <trkpt lat="44.72517" lon="5.4908">
        <ele>1776.65</ele>
        <time>2017-05-25T12:41:56Z</time>
      </trkpt>
      <trkpt lat="44.725" lon="5.49089">
        <ele>1776.65</ele>
        <time>2017-05-25T12:42:13Z</time>
      </trkpt>
      <trkpt lat="44.7248" lon="5.49097">
        <ele>1776.65</ele>
        <time>2017-05-25T12:42:31Z</time>
      </trkpt>
      <trkpt lat="44.72461" lon="5.49111">
        <ele>1777.13</ele>
        <time>2017-05-25T12:42:51Z</time>
      </trkpt>
      <trkpt lat="44.7245" lon="5.49116">
        <ele>1778.58</ele>
        <time>2017-05-25T12:43:05Z</time>
      </trkpt>
      <trkpt lat="44.72436" lon="5.49123">
        <ele>1780.98</ele>
        <time>2017-05-25T12:43:20Z</time>
      </trkpt>
      <trkpt lat="44.72419" lon="5.49128">
        <ele>1782.42</ele>
        <time>2017-05-25T12:43:36Z</time>
      </trkpt>
      <trkpt lat="44.72405" lon="5.49133">
        <ele>1784.34</ele>
        <time>2017-05-25T12:43:50Z</time>
      </trkpt>
      <trkpt lat="44.72389" lon="5.4914">
        <ele>1784.82</ele>
        <time>2017-05-25T12:44:06Z</time>
      </trkpt>
      <trkpt lat="44.72385" lon="5.49142">
        <ele>1783.38</ele>
        <time>2017-05-25T12:44:10Z</time>
      </trkpt>
      <trkpt lat="44.72367" lon="5.4915">
        <ele>1781.94</ele>
        <time>2017-05-25T12:44:28Z</time>
      </trkpt>
      <trkpt lat="44.72351" lon="5.49153">
        <ele>1783.38</ele>
        <time>2017-05-25T12:44:42Z</time>
      </trkpt>
      <trkpt lat="44.72334" lon="5.4916">
        <ele>1784.82</ele>
        <time>2017-05-25T12:44:58Z</time>
      </trkpt>
      <trkpt lat="44.72321" lon="5.49168">
        <ele>1784.82</ele>
        <time>2017-05-25T12:45:12Z</time>
      </trkpt>
      <trkpt lat="44.72307" lon="5.49178">
        <ele>1784.82</ele>
        <time>2017-05-25T12:45:26Z</time>
      </trkpt>
      <trkpt lat="44.72289" lon="5.49188">
        <ele>1786.27</ele>
        <time>2017-05-25T12:45:43Z</time>
      </trkpt>
      <trkpt lat="44.72275" lon="5.49199">
        <ele>1787.71</ele>
        <time>2017-05-25T12:45:59Z</time>
      </trkpt>
      <trkpt lat="44.7226" lon="5.49206">
        <ele>1788.67</ele>
        <time>2017-05-25T12:46:15Z</time>
      </trkpt>
      <trkpt lat="44.72244" lon="5.4921">
        <ele>1790.59</ele>
        <time>2017-05-25T12:46:30Z</time>
      </trkpt>
      <trkpt lat="44.72242" lon="5.49212">
        <ele>1790.59</ele>
        <time>2017-05-25T12:46:33Z</time>
      </trkpt>
      <trkpt lat="44.72225" lon="5.49216">
        <ele>1792.52</ele>
        <time>2017-05-25T12:46:49Z</time>
      </trkpt>
      <trkpt lat="44.72212" lon="5.4922">
        <ele>1793.48</ele>
        <time>2017-05-25T12:47:02Z</time>
      </trkpt>
      <trkpt lat="44.72206" lon="5.49224">
        <ele>1793.96</ele>
        <time>2017-05-25T12:47:08Z</time>
      </trkpt>
      <trkpt lat="44.72198" lon="5.49225">
        <ele>1794.92</ele>
        <time>2017-05-25T12:47:16Z</time>
      </trkpt>
      <trkpt lat="44.72195" lon="5.49226">
        <ele>1795.4</ele>
        <time>2017-05-25T12:47:19Z</time>
      </trkpt>
      <trkpt lat="44.72178" lon="5.49234">
        <ele>1796.84</ele>
        <time>2017-05-25T12:47:36Z</time>
      </trkpt>
      <trkpt lat="44.72177" lon="5.49235">
        <ele>1796.84</ele>
        <time>2017-05-25T12:47:37Z</time>
      </trkpt>
      <trkpt lat="44.72164" lon="5.49238">
        <ele>1798.28</ele>
        <time>2017-05-25T12:47:53Z</time>
      </trkpt>
      <trkpt lat="44.72165" lon="5.49236">
        <ele>1798.28</ele>
        <time>2017-05-25T12:48:12Z</time>
      </trkpt>
      <trkpt lat="44.72159" lon="5.4924">
        <ele>1798.28</ele>
        <time>2017-05-25T12:48:33Z</time>
      </trkpt>
      <trkpt lat="44.72144" lon="5.49244">
        <ele>1798.76</ele>
        <time>2017-05-25T12:48:49Z</time>
      </trkpt>
      <trkpt lat="44.72131" lon="5.49256">
        <ele>1800.21</ele>
        <time>2017-05-25T12:49:03Z</time>
      </trkpt>
      <trkpt lat="44.72124" lon="5.49273">
        <ele>1801.17</ele>
        <time>2017-05-25T12:49:18Z</time>
      </trkpt>
      <trkpt lat="44.72114" lon="5.49288">
        <ele>1802.61</ele>
        <time>2017-05-25T12:49:32Z</time>
      </trkpt>
      <trkpt lat="44.72105" lon="5.49304">
        <ele>1804.53</ele>
        <time>2017-05-25T12:49:46Z</time>
      </trkpt>
      <trkpt lat="44.72096" lon="5.4932">
        <ele>1805.97</ele>
        <time>2017-05-25T12:50:01Z</time>
      </trkpt>
      <trkpt lat="44.72088" lon="5.49335">
        <ele>1807.42</ele>
        <time>2017-05-25T12:50:15Z</time>
      </trkpt>
      <trkpt lat="44.72082" lon="5.49352">
        <ele>1808.38</ele>
        <time>2017-05-25T12:50:30Z</time>
      </trkpt>
      <trkpt lat="44.72078" lon="5.49367">
        <ele>1809.82</ele>
        <time>2017-05-25T12:50:42Z</time>
      </trkpt>
      <trkpt lat="44.72073" lon="5.49384">
        <ele>1811.26</ele>
        <time>2017-05-25T12:50:56Z</time>
      </trkpt>
      <trkpt lat="44.72072" lon="5.49389">
        <ele>1812.22</ele>
        <time>2017-05-25T12:51:00Z</time>
      </trkpt>
      <trkpt lat="44.7207" lon="5.49409">
        <ele>1813.66</ele>
        <time>2017-05-25T12:51:15Z</time>
      </trkpt>
      <trkpt lat="44.72065" lon="5.49427">
        <ele>1814.63</ele>
        <time>2017-05-25T12:51:30Z</time>
      </trkpt>
      <trkpt lat="44.72063" lon="5.49443">
        <ele>1816.07</ele>
        <time>2017-05-25T12:51:43Z</time>
      </trkpt>
      <trkpt lat="44.72061" lon="5.4946">
        <ele>1817.03</ele>
        <time>2017-05-25T12:51:56Z</time>
      </trkpt>
      <trkpt lat="44.7206" lon="5.49479">
        <ele>1817.99</ele>
        <time>2017-05-25T12:52:09Z</time>
      </trkpt>
      <trkpt lat="44.72063" lon="5.49495">
        <ele>1819.43</ele>
        <time>2017-05-25T12:52:22Z</time>
      </trkpt>
      <trkpt lat="44.72063" lon="5.49499">
        <ele>1819.91</ele>
        <time>2017-05-25T12:52:25Z</time>
      </trkpt>
      <trkpt lat="44.72059" lon="5.49518">
        <ele>1823.28</ele>
        <time>2017-05-25T12:52:41Z</time>
      </trkpt>
      <trkpt lat="44.72058" lon="5.49524">
        <ele>1823.76</ele>
        <time>2017-05-25T12:52:45Z</time>
      </trkpt>
      <trkpt lat="44.72049" lon="5.49542">
        <ele>1825.68</ele>
        <time>2017-05-25T12:53:00Z</time>
      </trkpt>
      <trkpt lat="44.7204" lon="5.49554">
        <ele>1827.12</ele>
        <time>2017-05-25T12:53:12Z</time>
      </trkpt>
      <trkpt lat="44.72039" lon="5.49556">
        <ele>1827.6</ele>
        <time>2017-05-25T12:53:15Z</time>
      </trkpt>
      <trkpt lat="44.72034" lon="5.49574">
        <ele>1829.53</ele>
        <time>2017-05-25T12:53:30Z</time>
      </trkpt>
      <trkpt lat="44.72035" lon="5.49582">
        <ele>1830.01</ele>
        <time>2017-05-25T12:53:36Z</time>
      </trkpt>
      <trkpt lat="44.72035" lon="5.49587">
        <ele>1830.49</ele>
        <time>2017-05-25T12:53:40Z</time>
      </trkpt>
      <trkpt lat="44.72029" lon="5.49608">
        <ele>1830.49</ele>
        <time>2017-05-25T12:53:55Z</time>
      </trkpt>
      <trkpt lat="44.72021" lon="5.49632">
        <ele>1831.45</ele>
        <time>2017-05-25T12:54:10Z</time>
      </trkpt>
      <trkpt lat="44.72014" lon="5.49651">
        <ele>1832.41</ele>
        <time>2017-05-25T12:54:25Z</time>
      </trkpt>
      <trkpt lat="44.72012" lon="5.49656">
        <ele>1832.89</ele>
        <time>2017-05-25T12:54:44Z</time>
      </trkpt>
      <trkpt lat="44.72004" lon="5.49677">
        <ele>1832.89</ele>
        <time>2017-05-25T12:54:59Z</time>
      </trkpt>
      <trkpt lat="44.71997" lon="5.49694">
        <ele>1834.33</ele>
        <time>2017-05-25T12:55:12Z</time>
      </trkpt>
      <trkpt lat="44.71987" lon="5.49717">
        <ele>1835.29</ele>
        <time>2017-05-25T12:55:29Z</time>
      </trkpt>
      <trkpt lat="44.71975" lon="5.49736">
        <ele>1836.26</ele>
        <time>2017-05-25T12:55:45Z</time>
      </trkpt>
      <trkpt lat="44.71964" lon="5.49753">
        <ele>1836.74</ele>
        <time>2017-05-25T12:55:59Z</time>
      </trkpt>
      <trkpt lat="44.71951" lon="5.49771">
        <ele>1837.22</ele>
        <time>2017-05-25T12:56:14Z</time>
      </trkpt>
      <trkpt lat="44.71938" lon="5.49789">
        <ele>1838.18</ele>
        <time>2017-05-25T12:56:29Z</time>
      </trkpt>
      <trkpt lat="44.71931" lon="5.498">
        <ele>1838.18</ele>
        <time>2017-05-25T12:56:38Z</time>
      </trkpt>
      <trkpt lat="44.71921" lon="5.49818">
        <ele>1837.22</ele>
        <time>2017-05-25T12:56:54Z</time>
      </trkpt>
      <trkpt lat="44.71911" lon="5.49831">
        <ele>1836.26</ele>
        <time>2017-05-25T12:58:21Z</time>
      </trkpt>
      <trkpt lat="44.71911" lon="5.4983">
        <ele>1837.22</ele>
        <time>2017-05-25T12:58:49Z</time>
      </trkpt>
      <trkpt lat="44.71907" lon="5.49835">
        <ele>1837.22</ele>
        <time>2017-05-25T12:59:10Z</time>
      </trkpt>
      <trkpt lat="44.71898" lon="5.4984">
        <ele>1837.22</ele>
        <time>2017-05-25T12:59:24Z</time>
      </trkpt>
      <trkpt lat="44.71888" lon="5.49861">
        <ele>1834.81</ele>
        <time>2017-05-25T12:59:43Z</time>
      </trkpt>
      <trkpt lat="44.71875" lon="5.49887">
        <ele>1833.37</ele>
        <time>2017-05-25T13:00:01Z</time>
      </trkpt>
      <trkpt lat="44.71862" lon="5.49906">
        <ele>1831.93</ele>
        <time>2017-05-25T13:00:17Z</time>
      </trkpt>
      <trkpt lat="44.71857" lon="5.49917">
        <ele>1830.49</ele>
        <time>2017-05-25T13:00:26Z</time>
      </trkpt>
      <trkpt lat="44.71844" lon="5.49937">
        <ele>1830.01</ele>
        <time>2017-05-25T13:00:41Z</time>
      </trkpt>
      <trkpt lat="44.71834" lon="5.49957">
        <ele>1830.01</ele>
        <time>2017-05-25T13:00:56Z</time>
      </trkpt>
      <trkpt lat="44.71832" lon="5.4996">
        <ele>1831.45</ele>
        <time>2017-05-25T13:00:59Z</time>
      </trkpt>
      <trkpt lat="44.71822" lon="5.49977">
        <ele>1832.41</ele>
        <time>2017-05-25T13:01:13Z</time>
      </trkpt>
      <trkpt lat="44.71811" lon="5.49995">
        <ele>1832.89</ele>
        <time>2017-05-25T13:01:28Z</time>
      </trkpt>
      <trkpt lat="44.71804" lon="5.50002">
        <ele>1832.89</ele>
        <time>2017-05-25T13:01:42Z</time>
      </trkpt>
      <trkpt lat="44.71805" lon="5.50001">
        <ele>1832.89</ele>
        <time>2017-05-25T13:02:10Z</time>
      </trkpt>
      <trkpt lat="44.71807" lon="5.49999">
        <ele>1833.37</ele>
        <time>2017-05-25T13:02:33Z</time>
      </trkpt>
      <trkpt lat="44.71802" lon="5.49999">
        <ele>1833.37</ele>
        <time>2017-05-25T13:02:49Z</time>
      </trkpt>
      <trkpt lat="44.71804" lon="5.5">
        <ele>1833.37</ele>
        <time>2017-05-25T13:03:20Z</time>
      </trkpt>
      <trkpt lat="44.718" lon="5.50002">
        <ele>1831.93</ele>
        <time>2017-05-25T13:03:52Z</time>
      </trkpt>
      <trkpt lat="44.71799" lon="5.50012">
        <ele>1829.05</ele>
        <time>2017-05-25T13:04:04Z</time>
      </trkpt>
      <trkpt lat="44.71797" lon="5.50016">
        <ele>1827.6</ele>
        <time>2017-05-25T13:04:17Z</time>
      </trkpt>
      <trkpt lat="44.71792" lon="5.50025">
        <ele>1824.72</ele>
        <time>2017-05-25T13:04:29Z</time>
      </trkpt>
      <trkpt lat="44.71786" lon="5.50032">
        <ele>1821.35</ele>
        <time>2017-05-25T13:04:42Z</time>
      </trkpt>
      <trkpt lat="44.71786" lon="5.50033">
        <ele>1820.87</ele>
        <time>2017-05-25T13:04:55Z</time>
      </trkpt>
      <trkpt lat="44.71785" lon="5.50041">
        <ele>1819.43</ele>
        <time>2017-05-25T13:05:14Z</time>
      </trkpt>
      <trkpt lat="44.71786" lon="5.50053">
        <ele>1817.03</ele>
        <time>2017-05-25T13:05:30Z</time>
      </trkpt>
      <trkpt lat="44.71783" lon="5.50061">
        <ele>1814.15</ele>
        <time>2017-05-25T13:05:39Z</time>
      </trkpt>
      <trkpt lat="44.71777" lon="5.50065">
        <ele>1811.74</ele>
        <time>2017-05-25T13:05:47Z</time>
      </trkpt>
      <trkpt lat="44.71767" lon="5.50077">
        <ele>1808.38</ele>
        <time>2017-05-25T13:06:01Z</time>
      </trkpt>
      <trkpt lat="44.71763" lon="5.50099">
        <ele>1807.42</ele>
        <time>2017-05-25T13:06:16Z</time>
      </trkpt>
      <trkpt lat="44.71763" lon="5.501">
        <ele>1807.42</ele>
        <time>2017-05-25T13:06:29Z</time>
      </trkpt>
      <trkpt lat="44.71758" lon="5.50096">
        <ele>1806.45</ele>
        <time>2017-05-25T13:06:41Z</time>
      </trkpt>
      <trkpt lat="44.7175" lon="5.50102">
        <ele>1805.49</ele>
        <time>2017-05-25T13:06:58Z</time>
      </trkpt>
      <trkpt lat="44.71745" lon="5.5011">
        <ele>1802.13</ele>
        <time>2017-05-25T13:07:11Z</time>
      </trkpt>
      <trkpt lat="44.7174" lon="5.50118">
        <ele>1800.21</ele>
        <time>2017-05-25T13:07:27Z</time>
      </trkpt>
      <trkpt lat="44.71738" lon="5.50126">
        <ele>1797.8</ele>
        <time>2017-05-25T13:07:41Z</time>
      </trkpt>
      <trkpt lat="44.71731" lon="5.50123">
        <ele>1796.36</ele>
        <time>2017-05-25T13:07:55Z</time>
      </trkpt>
      <trkpt lat="44.71722" lon="5.5012">
        <ele>1793.48</ele>
        <time>2017-05-25T13:08:12Z</time>
      </trkpt>
      <trkpt lat="44.71722" lon="5.50119">
        <ele>1793.48</ele>
        <time>2017-05-25T13:08:31Z</time>
      </trkpt>
      <trkpt lat="44.71721" lon="5.5012">
        <ele>1793.48</ele>
        <time>2017-05-25T13:08:51Z</time>
      </trkpt>
      <trkpt lat="44.71724" lon="5.5012">
        <ele>1793.48</ele>
        <time>2017-05-25T13:09:16Z</time>
      </trkpt>
      <trkpt lat="44.71724" lon="5.5012">
        <ele>1793.48</ele>
        <time>2017-05-25T13:09:42Z</time>
      </trkpt>
      <trkpt lat="44.71723" lon="5.50121">
        <ele>1793.48</ele>
        <time>2017-05-25T13:10:05Z</time>
      </trkpt>
      <trkpt lat="44.71723" lon="5.5012">
        <ele>1793</ele>
        <time>2017-05-25T13:10:30Z</time>
      </trkpt>
      <trkpt lat="44.7172" lon="5.50127">
        <ele>1791.55</ele>
        <time>2017-05-25T13:10:56Z</time>
      </trkpt>
      <trkpt lat="44.71716" lon="5.50135">
        <ele>1789.15</ele>
        <time>2017-05-25T13:11:11Z</time>
      </trkpt>
      <trkpt lat="44.71714" lon="5.5014">
        <ele>1788.19</ele>
        <time>2017-05-25T13:11:31Z</time>
      </trkpt>
      <trkpt lat="44.71707" lon="5.5015">
        <ele>1785.31</ele>
        <time>2017-05-25T13:11:44Z</time>
      </trkpt>
      <trkpt lat="44.71698" lon="5.5016">
        <ele>1781.94</ele>
        <time>2017-05-25T13:11:58Z</time>
      </trkpt>
      <trkpt lat="44.7169" lon="5.50174">
        <ele>1778.58</ele>
        <time>2017-05-25T13:12:12Z</time>
      </trkpt>
      <trkpt lat="44.71687" lon="5.50189">
        <ele>1775.21</ele>
        <time>2017-05-25T13:12:24Z</time>
      </trkpt>
      <trkpt lat="44.71687" lon="5.50202">
        <ele>1772.33</ele>
        <time>2017-05-25T13:12:34Z</time>
      </trkpt>
      <trkpt lat="44.71681" lon="5.50216">
        <ele>1768.48</ele>
        <time>2017-05-25T13:12:47Z</time>
      </trkpt>
      <trkpt lat="44.71678" lon="5.50229">
        <ele>1765.6</ele>
        <time>2017-05-25T13:12:58Z</time>
      </trkpt>
      <trkpt lat="44.71679" lon="5.50241">
        <ele>1762.71</ele>
        <time>2017-05-25T13:13:08Z</time>
      </trkpt>
      <trkpt lat="44.71672" lon="5.50259">
        <ele>1759.35</ele>
        <time>2017-05-25T13:13:24Z</time>
      </trkpt>
      <trkpt lat="44.71675" lon="5.50273">
        <ele>1756.47</ele>
        <time>2017-05-25T13:13:37Z</time>
      </trkpt>
      <trkpt lat="44.71681" lon="5.50281">
        <ele>1753.58</ele>
        <time>2017-05-25T13:13:49Z</time>
      </trkpt>
      <trkpt lat="44.71684" lon="5.50294">
        <ele>1750.22</ele>
        <time>2017-05-25T13:14:01Z</time>
      </trkpt>
      <trkpt lat="44.71688" lon="5.50306">
        <ele>1746.85</ele>
        <time>2017-05-25T13:14:15Z</time>
      </trkpt>
      <trkpt lat="44.7169" lon="5.50309">
        <ele>1745.41</ele>
        <time>2017-05-25T13:14:28Z</time>
      </trkpt>
      <trkpt lat="44.71693" lon="5.50316">
        <ele>1743.49</ele>
        <time>2017-05-25T13:14:46Z</time>
      </trkpt>
      <trkpt lat="44.7169" lon="5.50326">
        <ele>1740.6</ele>
        <time>2017-05-25T13:14:58Z</time>
      </trkpt>
      <trkpt lat="44.71696" lon="5.50335">
        <ele>1738.2</ele>
        <time>2017-05-25T13:15:13Z</time>
      </trkpt>
      <trkpt lat="44.71699" lon="5.50339">
        <ele>1735.32</ele>
        <time>2017-05-25T13:15:27Z</time>
      </trkpt>
      <trkpt lat="44.71702" lon="5.50345">
        <ele>1732.43</ele>
        <time>2017-05-25T13:15:41Z</time>
      </trkpt>
      <trkpt lat="44.71706" lon="5.50349">
        <ele>1729.55</ele>
        <time>2017-05-25T13:15:54Z</time>
      </trkpt>
      <trkpt lat="44.71712" lon="5.50348">
        <ele>1727.15</ele>
        <time>2017-05-25T13:16:07Z</time>
      </trkpt>
      <trkpt lat="44.7172" lon="5.50354">
        <ele>1724.74</ele>
        <time>2017-05-25T13:16:21Z</time>
      </trkpt>
      <trkpt lat="44.71715" lon="5.50361">
        <ele>1721.38</ele>
        <time>2017-05-25T13:16:34Z</time>
      </trkpt>
      <trkpt lat="44.7172" lon="5.50369">
        <ele>1718.49</ele>
        <time>2017-05-25T13:16:48Z</time>
      </trkpt>
      <trkpt lat="44.7172" lon="5.50375">
        <ele>1715.13</ele>
        <time>2017-05-25T13:17:02Z</time>
      </trkpt>
      <trkpt lat="44.71722" lon="5.50384">
        <ele>1711.76</ele>
        <time>2017-05-25T13:17:15Z</time>
      </trkpt>
      <trkpt lat="44.71727" lon="5.50387">
        <ele>1709.84</ele>
        <time>2017-05-25T13:17:28Z</time>
      </trkpt>
      <trkpt lat="44.71733" lon="5.50394">
        <ele>1706.96</ele>
        <time>2017-05-25T13:17:37Z</time>
      </trkpt>
      <trkpt lat="44.71731" lon="5.50407">
        <ele>1703.59</ele>
        <time>2017-05-25T13:17:50Z</time>
      </trkpt>
      <trkpt lat="44.71728" lon="5.50413">
        <ele>1703.11</ele>
        <time>2017-05-25T13:17:54Z</time>
      </trkpt>
      <trkpt lat="44.71718" lon="5.50432">
        <ele>1699.75</ele>
        <time>2017-05-25T13:18:10Z</time>
      </trkpt>
      <trkpt lat="44.71708" lon="5.50447">
        <ele>1697.83</ele>
        <time>2017-05-25T13:18:23Z</time>
      </trkpt>
      <trkpt lat="44.71701" lon="5.50456">
        <ele>1696.38</ele>
        <time>2017-05-25T13:18:38Z</time>
      </trkpt>
      <trkpt lat="44.71697" lon="5.50462">
        <ele>1696.38</ele>
        <time>2017-05-25T13:18:49Z</time>
      </trkpt>
      <trkpt lat="44.71689" lon="5.50469">
        <ele>1694.94</ele>
        <time>2017-05-25T13:19:01Z</time>
      </trkpt>
      <trkpt lat="44.71691" lon="5.50478">
        <ele>1691.58</ele>
        <time>2017-05-25T13:19:16Z</time>
      </trkpt>
      <trkpt lat="44.71692" lon="5.5049">
        <ele>1688.69</ele>
        <time>2017-05-25T13:19:29Z</time>
      </trkpt>
      <trkpt lat="44.71691" lon="5.50497">
        <ele>1686.29</ele>
        <time>2017-05-25T13:19:40Z</time>
      </trkpt>
      <trkpt lat="44.71686" lon="5.50516">
        <ele>1685.33</ele>
        <time>2017-05-25T13:19:53Z</time>
      </trkpt>
      <trkpt lat="44.71688" lon="5.50539">
        <ele>1686.77</ele>
        <time>2017-05-25T13:20:05Z</time>
      </trkpt>
      <trkpt lat="44.71692" lon="5.50553">
        <ele>1684.37</ele>
        <time>2017-05-25T13:20:17Z</time>
      </trkpt>
      <trkpt lat="44.7169" lon="5.50563">
        <ele>1683.89</ele>
        <time>2017-05-25T13:20:30Z</time>
      </trkpt>
      <trkpt lat="44.71691" lon="5.50572">
        <ele>1678.6</ele>
        <time>2017-05-25T13:36:17Z</time>
      </trkpt>
      <trkpt lat="44.7169" lon="5.50573">
        <ele>1680.04</ele>
        <time>2017-05-25T13:36:38Z</time>
      </trkpt>
      <trkpt lat="44.71688" lon="5.50571">
        <ele>1680.04</ele>
        <time>2017-05-25T13:36:54Z</time>
      </trkpt>
      <trkpt lat="44.71688" lon="5.50568">
        <ele>1680.04</ele>
        <time>2017-05-25T13:37:08Z</time>
      </trkpt>
      <trkpt lat="44.71684" lon="5.50559">
        <ele>1680.52</ele>
        <time>2017-05-25T13:37:23Z</time>
      </trkpt>
      <trkpt lat="44.71684" lon="5.50549">
        <ele>1681.48</ele>
        <time>2017-05-25T13:37:35Z</time>
      </trkpt>
      <trkpt lat="44.71686" lon="5.50533">
        <ele>1681.48</ele>
        <time>2017-05-25T13:37:50Z</time>
      </trkpt>
      <trkpt lat="44.71689" lon="5.50518">
        <ele>1681.96</ele>
        <time>2017-05-25T13:38:04Z</time>
      </trkpt>
      <trkpt lat="44.71687" lon="5.50509">
        <ele>1684.37</ele>
        <time>2017-05-25T13:38:16Z</time>
      </trkpt>
      <trkpt lat="44.71684" lon="5.50497">
        <ele>1686.77</ele>
        <time>2017-05-25T13:38:32Z</time>
      </trkpt>
      <trkpt lat="44.71688" lon="5.50486">
        <ele>1688.69</ele>
        <time>2017-05-25T13:38:47Z</time>
      </trkpt>
      <trkpt lat="44.71693" lon="5.50475">
        <ele>1690.14</ele>
        <time>2017-05-25T13:39:01Z</time>
      </trkpt>
      <trkpt lat="44.71705" lon="5.50465">
        <ele>1690.14</ele>
        <time>2017-05-25T13:39:16Z</time>
      </trkpt>
      <trkpt lat="44.71708" lon="5.50454">
        <ele>1691.58</ele>
        <time>2017-05-25T13:39:28Z</time>
      </trkpt>
      <trkpt lat="44.71714" lon="5.50443">
        <ele>1692.54</ele>
        <time>2017-05-25T13:39:41Z</time>
      </trkpt>
      <trkpt lat="44.71719" lon="5.50429">
        <ele>1694.46</ele>
        <time>2017-05-25T13:39:55Z</time>
      </trkpt>
      <trkpt lat="44.71719" lon="5.50415">
        <ele>1696.38</ele>
        <time>2017-05-25T13:40:09Z</time>
      </trkpt>
      <trkpt lat="44.71719" lon="5.50404">
        <ele>1698.31</ele>
        <time>2017-05-25T13:40:22Z</time>
      </trkpt>
      <trkpt lat="44.7172" lon="5.50393">
        <ele>1700.71</ele>
        <time>2017-05-25T13:40:37Z</time>
      </trkpt>
      <trkpt lat="44.71718" lon="5.50387">
        <ele>1702.63</ele>
        <time>2017-05-25T13:40:51Z</time>
      </trkpt>
      <trkpt lat="44.71715" lon="5.5038">
        <ele>1704.55</ele>
        <time>2017-05-25T13:41:06Z</time>
      </trkpt>
      <trkpt lat="44.71716" lon="5.50375">
        <ele>1707.44</ele>
        <time>2017-05-25T13:41:20Z</time>
      </trkpt>
      <trkpt lat="44.71717" lon="5.50368">
        <ele>1709.36</ele>
        <time>2017-05-25T13:41:33Z</time>
      </trkpt>
      <trkpt lat="44.71713" lon="5.50364">
        <ele>1712.25</ele>
        <time>2017-05-25T13:41:49Z</time>
      </trkpt>
      <trkpt lat="44.71712" lon="5.50355">
        <ele>1714.17</ele>
        <time>2017-05-25T13:42:03Z</time>
      </trkpt>
      <trkpt lat="44.71713" lon="5.50349">
        <ele>1716.09</ele>
        <time>2017-05-25T13:42:16Z</time>
      </trkpt>
      <trkpt lat="44.71711" lon="5.50347">
        <ele>1718.49</ele>
        <time>2017-05-25T13:42:29Z</time>
      </trkpt>
      <trkpt lat="44.71706" lon="5.5035">
        <ele>1720.9</ele>
        <time>2017-05-25T13:42:43Z</time>
      </trkpt>
      <trkpt lat="44.71702" lon="5.50346">
        <ele>1723.78</ele>
        <time>2017-05-25T13:42:57Z</time>
      </trkpt>
      <trkpt lat="44.71698" lon="5.50341">
        <ele>1726.18</ele>
        <time>2017-05-25T13:43:11Z</time>
      </trkpt>
      <trkpt lat="44.71696" lon="5.50336">
        <ele>1729.07</ele>
        <time>2017-05-25T13:43:25Z</time>
      </trkpt>
      <trkpt lat="44.71696" lon="5.50325">
        <ele>1730.99</ele>
        <time>2017-05-25T13:43:40Z</time>
      </trkpt>
      <trkpt lat="44.71696" lon="5.50316">
        <ele>1732.91</ele>
        <time>2017-05-25T13:43:54Z</time>
      </trkpt>
      <trkpt lat="44.71694" lon="5.50305">
        <ele>1735.32</ele>
        <time>2017-05-25T13:44:09Z</time>
      </trkpt>
      <trkpt lat="44.71694" lon="5.50298">
        <ele>1747.33</ele>
        <time>2017-05-25T14:08:51Z</time>
      </trkpt>
      <trkpt lat="44.71694" lon="5.50298">
        <ele>1747.81</ele>
        <time>2017-05-25T14:09:09Z</time>
      </trkpt>
      <trkpt lat="44.71695" lon="5.50298">
        <ele>1747.81</ele>
        <time>2017-05-25T14:09:28Z</time>
      </trkpt>
      <trkpt lat="44.71697" lon="5.50293">
        <ele>1748.29</ele>
        <time>2017-05-25T14:09:45Z</time>
      </trkpt>
      <trkpt lat="44.71696" lon="5.50283">
        <ele>1749.74</ele>
        <time>2017-05-25T14:10:01Z</time>
      </trkpt>
      <trkpt lat="44.7169" lon="5.50276">
        <ele>1752.14</ele>
        <time>2017-05-25T14:10:18Z</time>
      </trkpt>
      <trkpt lat="44.71682" lon="5.50262">
        <ele>1755.02</ele>
        <time>2017-05-25T14:10:36Z</time>
      </trkpt>
      <trkpt lat="44.7168" lon="5.50252">
        <ele>1757.43</ele>
        <time>2017-05-25T14:10:54Z</time>
      </trkpt>
      <trkpt lat="44.71679" lon="5.50242">
        <ele>1759.83</ele>
        <time>2017-05-25T14:11:11Z</time>
      </trkpt>
      <trkpt lat="44.71684" lon="5.50231">
        <ele>1761.75</ele>
        <time>2017-05-25T14:11:26Z</time>
      </trkpt>
      <trkpt lat="44.71688" lon="5.50221">
        <ele>1764.16</ele>
        <time>2017-05-25T14:11:43Z</time>
      </trkpt>
      <trkpt lat="44.71687" lon="5.50208">
        <ele>1767.52</ele>
        <time>2017-05-25T14:12:00Z</time>
      </trkpt>
      <trkpt lat="44.71689" lon="5.50199">
        <ele>1769.44</ele>
        <time>2017-05-25T14:12:14Z</time>
      </trkpt>
      <trkpt lat="44.71688" lon="5.50187">
        <ele>1772.33</ele>
        <time>2017-05-25T14:12:34Z</time>
      </trkpt>
      <trkpt lat="44.71694" lon="5.50177">
        <ele>1775.21</ele>
        <time>2017-05-25T14:12:51Z</time>
      </trkpt>
      <trkpt lat="44.71696" lon="5.50169">
        <ele>1777.13</ele>
        <time>2017-05-25T14:13:05Z</time>
      </trkpt>
      <trkpt lat="44.71703" lon="5.50161">
        <ele>1780.02</ele>
        <time>2017-05-25T14:13:22Z</time>
      </trkpt>
      <trkpt lat="44.71708" lon="5.50154">
        <ele>1782.42</ele>
        <time>2017-05-25T14:13:39Z</time>
      </trkpt>
      <trkpt lat="44.71712" lon="5.50142">
        <ele>1785.31</ele>
        <time>2017-05-25T14:13:58Z</time>
      </trkpt>
      <trkpt lat="44.71717" lon="5.50136">
        <ele>1788.19</ele>
        <time>2017-05-25T14:14:12Z</time>
      </trkpt>
      <trkpt lat="44.71721" lon="5.5013">
        <ele>1790.11</ele>
        <time>2017-05-25T14:14:25Z</time>
      </trkpt>
      <trkpt lat="44.71727" lon="5.50123">
        <ele>1792.52</ele>
        <time>2017-05-25T14:14:40Z</time>
      </trkpt>
      <trkpt lat="44.71734" lon="5.50122">
        <ele>1794.92</ele>
        <time>2017-05-25T14:14:55Z</time>
      </trkpt>
      <trkpt lat="44.71739" lon="5.50121">
        <ele>1797.8</ele>
        <time>2017-05-25T14:15:09Z</time>
      </trkpt>
      <trkpt lat="44.71743" lon="5.50112">
        <ele>1800.69</ele>
        <time>2017-05-25T14:15:26Z</time>
      </trkpt>
      <trkpt lat="44.71744" lon="5.50104">
        <ele>1801.65</ele>
        <time>2017-05-25T14:15:41Z</time>
      </trkpt>
      <trkpt lat="44.71745" lon="5.50106">
        <ele>1802.13</ele>
        <time>2017-05-25T14:15:59Z</time>
      </trkpt>
      <trkpt lat="44.71745" lon="5.5011">
        <ele>1802.13</ele>
        <time>2017-05-25T14:16:22Z</time>
      </trkpt>
      <trkpt lat="44.71745" lon="5.50108">
        <ele>1802.13</ele>
        <time>2017-05-25T14:16:45Z</time>
      </trkpt>
      <trkpt lat="44.71749" lon="5.50099">
        <ele>1803.57</ele>
        <time>2017-05-25T14:17:02Z</time>
      </trkpt>
      <trkpt lat="44.71754" lon="5.50098">
        <ele>1806.45</ele>
        <time>2017-05-25T14:17:19Z</time>
      </trkpt>
      <trkpt lat="44.71761" lon="5.50089">
        <ele>1806.45</ele>
        <time>2017-05-25T14:17:34Z</time>
      </trkpt>
      <trkpt lat="44.71763" lon="5.50083">
        <ele>1806.94</ele>
        <time>2017-05-25T14:17:49Z</time>
      </trkpt>
      <trkpt lat="44.71765" lon="5.50081">
        <ele>1806.94</ele>
        <time>2017-05-25T14:18:15Z</time>
      </trkpt>
      <trkpt lat="44.71766" lon="5.5008">
        <ele>1807.42</ele>
        <time>2017-05-25T14:18:39Z</time>
      </trkpt>
      <trkpt lat="44.71767" lon="5.5008">
        <ele>1807.42</ele>
        <time>2017-05-25T14:19:02Z</time>
      </trkpt>
      <trkpt lat="44.71772" lon="5.50067">
        <ele>1808.86</ele>
        <time>2017-05-25T14:19:18Z</time>
      </trkpt>
      <trkpt lat="44.7178" lon="5.50059">
        <ele>1811.74</ele>
        <time>2017-05-25T14:19:34Z</time>
      </trkpt>
      <trkpt lat="44.71781" lon="5.50048">
        <ele>1814.63</ele>
        <time>2017-05-25T14:19:47Z</time>
      </trkpt>
      <trkpt lat="44.71781" lon="5.50037">
        <ele>1817.51</ele>
        <time>2017-05-25T14:20:02Z</time>
      </trkpt>
      <trkpt lat="44.71785" lon="5.50028">
        <ele>1820.87</ele>
        <time>2017-05-25T14:20:19Z</time>
      </trkpt>
      <trkpt lat="44.71789" lon="5.50022">
        <ele>1823.76</ele>
        <time>2017-05-25T14:20:36Z</time>
      </trkpt>
      <trkpt lat="44.71795" lon="5.50017">
        <ele>1826.16</ele>
        <time>2017-05-25T14:20:50Z</time>
      </trkpt>
      <trkpt lat="44.71797" lon="5.50009">
        <ele>1829.53</ele>
        <time>2017-05-25T14:21:06Z</time>
      </trkpt>
      <trkpt lat="44.71799" lon="5.5">
        <ele>1831.45</ele>
        <time>2017-05-25T14:21:21Z</time>
      </trkpt>
      <trkpt lat="44.71803" lon="5.49988">
        <ele>1832.41</ele>
        <time>2017-05-25T14:21:35Z</time>
      </trkpt>
      <trkpt lat="44.71807" lon="5.49976">
        <ele>1833.37</ele>
        <time>2017-05-25T14:21:49Z</time>
      </trkpt>
      <trkpt lat="44.71813" lon="5.49962">
        <ele>1833.37</ele>
        <time>2017-05-25T14:22:04Z</time>
      </trkpt>
      <trkpt lat="44.71822" lon="5.4995">
        <ele>1833.37</ele>
        <time>2017-05-25T14:22:19Z</time>
      </trkpt>
      <trkpt lat="44.71829" lon="5.49939">
        <ele>1831.93</ele>
        <time>2017-05-25T14:22:30Z</time>
      </trkpt>
      <trkpt lat="44.71837" lon="5.49921">
        <ele>1830.97</ele>
        <time>2017-05-25T14:22:48Z</time>
      </trkpt>
      <trkpt lat="44.71848" lon="5.49905">
        <ele>1830.97</ele>
        <time>2017-05-25T14:23:05Z</time>
      </trkpt>
      <trkpt lat="44.7186" lon="5.49891">
        <ele>1832.41</ele>
        <time>2017-05-25T14:23:21Z</time>
      </trkpt>
      <trkpt lat="44.71868" lon="5.49877">
        <ele>1834.33</ele>
        <time>2017-05-25T14:23:35Z</time>
      </trkpt>
      <trkpt lat="44.71869" lon="5.49876">
        <ele>1834.33</ele>
        <time>2017-05-25T14:23:37Z</time>
      </trkpt>
      <trkpt lat="44.71883" lon="5.49863">
        <ele>1834.81</ele>
        <time>2017-05-25T14:23:54Z</time>
      </trkpt>
      <trkpt lat="44.71888" lon="5.49857">
        <ele>1835.29</ele>
        <time>2017-05-25T14:24:01Z</time>
      </trkpt>
      <trkpt lat="44.71903" lon="5.49848">
        <ele>1836.26</ele>
        <time>2017-05-25T14:24:18Z</time>
      </trkpt>
      <trkpt lat="44.71903" lon="5.49847">
        <ele>1836.26</ele>
        <time>2017-05-25T14:24:19Z</time>
      </trkpt>
      <trkpt lat="44.71911" lon="5.49828">
        <ele>1838.18</ele>
        <time>2017-05-25T14:24:36Z</time>
      </trkpt>
      <trkpt lat="44.71921" lon="5.49811">
        <ele>1838.66</ele>
        <time>2017-05-25T14:24:51Z</time>
      </trkpt>
      <trkpt lat="44.71934" lon="5.49797">
        <ele>1839.14</ele>
        <time>2017-05-25T14:25:06Z</time>
      </trkpt>
      <trkpt lat="44.71947" lon="5.49782">
        <ele>1839.62</ele>
        <time>2017-05-25T14:25:22Z</time>
      </trkpt>
      <trkpt lat="44.7196" lon="5.49768">
        <ele>1839.62</ele>
        <time>2017-05-25T14:25:37Z</time>
      </trkpt>
      <trkpt lat="44.71974" lon="5.49751">
        <ele>1838.18</ele>
        <time>2017-05-25T14:25:54Z</time>
      </trkpt>
      <trkpt lat="44.71987" lon="5.49735">
        <ele>1837.7</ele>
        <time>2017-05-25T14:26:10Z</time>
      </trkpt>
      <trkpt lat="44.72002" lon="5.4972">
        <ele>1835.77</ele>
        <time>2017-05-25T14:26:27Z</time>
      </trkpt>
      <trkpt lat="44.72012" lon="5.49716">
        <ele>1835.77</ele>
        <time>2017-05-25T14:26:41Z</time>
      </trkpt>
      <trkpt lat="44.72027" lon="5.49707">
        <ele>1835.29</ele>
        <time>2017-05-25T14:26:56Z</time>
      </trkpt>
      <trkpt lat="44.72038" lon="5.49699">
        <ele>1835.29</ele>
        <time>2017-05-25T14:27:10Z</time>
      </trkpt>
      <trkpt lat="44.7204" lon="5.49698">
        <ele>1834.81</ele>
        <time>2017-05-25T14:27:12Z</time>
      </trkpt>
      <trkpt lat="44.72054" lon="5.49685">
        <ele>1833.85</ele>
        <time>2017-05-25T14:27:29Z</time>
      </trkpt>
      <trkpt lat="44.72057" lon="5.49677">
        <ele>1832.89</ele>
        <time>2017-05-25T14:27:37Z</time>
      </trkpt>
      <trkpt lat="44.72063" lon="5.49657">
        <ele>1832.41</ele>
        <time>2017-05-25T14:27:54Z</time>
      </trkpt>
      <trkpt lat="44.72072" lon="5.49645">
        <ele>1831.45</ele>
        <time>2017-05-25T14:28:09Z</time>
      </trkpt>
      <trkpt lat="44.72079" lon="5.49637">
        <ele>1830.01</ele>
        <time>2017-05-25T14:28:22Z</time>
      </trkpt>
      <trkpt lat="44.72091" lon="5.49632">
        <ele>1827.6</ele>
        <time>2017-05-25T14:28:37Z</time>
      </trkpt>
      <trkpt lat="44.72105" lon="5.49625">
        <ele>1825.2</ele>
        <time>2017-05-25T14:28:53Z</time>
      </trkpt>
      <trkpt lat="44.72109" lon="5.49626">
        <ele>1824.24</ele>
        <time>2017-05-25T14:28:57Z</time>
      </trkpt>
      <trkpt lat="44.72111" lon="5.49628">
        <ele>1823.76</ele>
        <time>2017-05-25T14:29:00Z</time>
      </trkpt>
      <trkpt lat="44.72131" lon="5.49644">
        <ele>1820.87</ele>
        <time>2017-05-25T14:29:22Z</time>
      </trkpt>
      <trkpt lat="44.72146" lon="5.49653">
        <ele>1818.95</ele>
        <time>2017-05-25T14:29:39Z</time>
      </trkpt>
      <trkpt lat="44.72147" lon="5.49655">
        <ele>1818.95</ele>
        <time>2017-05-25T14:29:56Z</time>
      </trkpt>
      <trkpt lat="44.72148" lon="5.49654">
        <ele>1819.91</ele>
        <time>2017-05-25T14:30:00Z</time>
      </trkpt>
      <trkpt lat="44.72152" lon="5.49657">
        <ele>1818.47</ele>
        <time>2017-05-25T14:30:20Z</time>
      </trkpt>
      <trkpt lat="44.72168" lon="5.49665">
        <ele>1817.51</ele>
        <time>2017-05-25T14:30:37Z</time>
      </trkpt>
      <trkpt lat="44.72182" lon="5.49667">
        <ele>1819.43</ele>
        <time>2017-05-25T14:30:52Z</time>
      </trkpt>
      <trkpt lat="44.72196" lon="5.49668">
        <ele>1820.87</ele>
        <time>2017-05-25T14:31:08Z</time>
      </trkpt>
      <trkpt lat="44.72201" lon="5.49667">
        <ele>1821.35</ele>
        <time>2017-05-25T14:31:20Z</time>
      </trkpt>
      <trkpt lat="44.72211" lon="5.49664">
        <ele>1821.35</ele>
        <time>2017-05-25T14:31:33Z</time>
      </trkpt>
      <trkpt lat="44.72217" lon="5.49668">
        <ele>1822.32</ele>
        <time>2017-05-25T14:31:42Z</time>
      </trkpt>
      <trkpt lat="44.72227" lon="5.49675">
        <ele>1823.28</ele>
        <time>2017-05-25T14:31:58Z</time>
      </trkpt>
      <trkpt lat="44.72228" lon="5.49677">
        <ele>1823.28</ele>
        <time>2017-05-25T14:32:15Z</time>
      </trkpt>
      <trkpt lat="44.72227" lon="5.49677">
        <ele>1823.76</ele>
        <time>2017-05-25T14:32:35Z</time>
      </trkpt>
      <trkpt lat="44.72227" lon="5.49676">
        <ele>1823.76</ele>
        <time>2017-05-25T14:32:57Z</time>
      </trkpt>
      <trkpt lat="44.72227" lon="5.49675">
        <ele>1823.28</ele>
        <time>2017-05-25T14:33:18Z</time>
      </trkpt>
      <trkpt lat="44.72227" lon="5.49674">
        <ele>1823.28</ele>
        <time>2017-05-25T14:33:38Z</time>
      </trkpt>
      <trkpt lat="44.72228" lon="5.49674">
        <ele>1823.28</ele>
        <time>2017-05-25T14:33:59Z</time>
      </trkpt>
      <trkpt lat="44.72228" lon="5.49675">
        <ele>1823.28</ele>
        <time>2017-05-25T14:34:19Z</time>
      </trkpt>
      <trkpt lat="44.72225" lon="5.49676">
        <ele>1823.28</ele>
        <time>2017-05-25T14:34:38Z</time>
      </trkpt>
      <trkpt lat="44.72228" lon="5.49676">
        <ele>1823.28</ele>
        <time>2017-05-25T14:34:58Z</time>
      </trkpt>
      <trkpt lat="44.72225" lon="5.49675">
        <ele>1823.28</ele>
        <time>2017-05-25T14:35:17Z</time>
      </trkpt>
      <trkpt lat="44.72221" lon="5.49671">
        <ele>1823.28</ele>
        <time>2017-05-25T14:35:39Z</time>
      </trkpt>
      <trkpt lat="44.72221" lon="5.49669">
        <ele>1823.28</ele>
        <time>2017-05-25T14:35:57Z</time>
      </trkpt>
      <trkpt lat="44.72223" lon="5.49659">
        <ele>1821.84</ele>
        <time>2017-05-25T14:36:06Z</time>
      </trkpt>
      <trkpt lat="44.72223" lon="5.49653">
        <ele>1820.87</ele>
        <time>2017-05-25T14:36:24Z</time>
      </trkpt>
      <trkpt lat="44.72227" lon="5.49639">
        <ele>1818.95</ele>
        <time>2017-05-25T14:36:39Z</time>
      </trkpt>
      <trkpt lat="44.72229" lon="5.49626">
        <ele>1817.51</ele>
        <time>2017-05-25T14:36:55Z</time>
      </trkpt>
      <trkpt lat="44.72233" lon="5.49617">
        <ele>1816.55</ele>
        <time>2017-05-25T14:37:03Z</time>
      </trkpt>
      <trkpt lat="44.72241" lon="5.49595">
        <ele>1814.63</ele>
        <time>2017-05-25T14:37:21Z</time>
      </trkpt>
      <trkpt lat="44.72254" lon="5.49579">
        <ele>1813.18</ele>
        <time>2017-05-25T14:37:37Z</time>
      </trkpt>
      <trkpt lat="44.72259" lon="5.4958">
        <ele>1813.18</ele>
        <time>2017-05-25T14:37:54Z</time>
      </trkpt>
      <trkpt lat="44.72264" lon="5.49578">
        <ele>1813.18</ele>
        <time>2017-05-25T14:38:15Z</time>
      </trkpt>
      <trkpt lat="44.72265" lon="5.49567">
        <ele>1813.18</ele>
        <time>2017-05-25T14:38:32Z</time>
      </trkpt>
      <trkpt lat="44.72266" lon="5.49563">
        <ele>1812.7</ele>
        <time>2017-05-25T14:38:49Z</time>
      </trkpt>
      <trkpt lat="44.72268" lon="5.49552">
        <ele>1812.22</ele>
        <time>2017-05-25T14:39:02Z</time>
      </trkpt>
      <trkpt lat="44.72272" lon="5.49542">
        <ele>1811.26</ele>
        <time>2017-05-25T14:39:17Z</time>
      </trkpt>
      <trkpt lat="44.72279" lon="5.49531">
        <ele>1810.3</ele>
        <time>2017-05-25T14:39:31Z</time>
      </trkpt>
      <trkpt lat="44.72292" lon="5.49515">
        <ele>1808.86</ele>
        <time>2017-05-25T14:39:47Z</time>
      </trkpt>
      <trkpt lat="44.72307" lon="5.4949">
        <ele>1806.45</ele>
        <time>2017-05-25T14:40:07Z</time>
      </trkpt>
      <trkpt lat="44.72314" lon="5.49473">
        <ele>1804.53</ele>
        <time>2017-05-25T14:40:22Z</time>
      </trkpt>
      <trkpt lat="44.72314" lon="5.49473">
        <ele>1804.05</ele>
        <time>2017-05-25T14:40:42Z</time>
      </trkpt>
      <trkpt lat="44.72316" lon="5.4947">
        <ele>1803.57</ele>
        <time>2017-05-25T14:40:48Z</time>
      </trkpt>
      <trkpt lat="44.72325" lon="5.49458">
        <ele>1802.61</ele>
        <time>2017-05-25T14:41:03Z</time>
      </trkpt>
      <trkpt lat="44.72344" lon="5.49438">
        <ele>1799.73</ele>
        <time>2017-05-25T14:41:22Z</time>
      </trkpt>
      <trkpt lat="44.72363" lon="5.49419">
        <ele>1798.28</ele>
        <time>2017-05-25T14:41:40Z</time>
      </trkpt>
      <trkpt lat="44.72377" lon="5.49397">
        <ele>1794.92</ele>
        <time>2017-05-25T14:41:56Z</time>
      </trkpt>
      <trkpt lat="44.72385" lon="5.49378">
        <ele>1794.92</ele>
        <time>2017-05-25T14:42:09Z</time>
      </trkpt>
      <trkpt lat="44.724" lon="5.49358">
        <ele>1794.44</ele>
        <time>2017-05-25T14:42:26Z</time>
      </trkpt>
      <trkpt lat="44.72418" lon="5.4934">
        <ele>1793.48</ele>
        <time>2017-05-25T14:42:43Z</time>
      </trkpt>
      <trkpt lat="44.72431" lon="5.49324">
        <ele>1793</ele>
        <time>2017-05-25T14:42:57Z</time>
      </trkpt>
      <trkpt lat="44.72446" lon="5.49301">
        <ele>1792.52</ele>
        <time>2017-05-25T14:43:15Z</time>
      </trkpt>
      <trkpt lat="44.72462" lon="5.49287">
        <ele>1792.52</ele>
        <time>2017-05-25T14:43:30Z</time>
      </trkpt>
      <trkpt lat="44.72465" lon="5.49283">
        <ele>1792.03</ele>
        <time>2017-05-25T14:43:33Z</time>
      </trkpt>
      <trkpt lat="44.7248" lon="5.49274">
        <ele>1790.11</ele>
        <time>2017-05-25T14:43:49Z</time>
      </trkpt>
      <trkpt lat="44.72497" lon="5.49257">
        <ele>1787.71</ele>
        <time>2017-05-25T14:44:06Z</time>
      </trkpt>
      <trkpt lat="44.72508" lon="5.49246">
        <ele>1785.79</ele>
        <time>2017-05-25T14:44:19Z</time>
      </trkpt>
      <trkpt lat="44.72521" lon="5.49225">
        <ele>1782.9</ele>
        <time>2017-05-25T14:44:37Z</time>
      </trkpt>
      <trkpt lat="44.72532" lon="5.49208">
        <ele>1779.54</ele>
        <time>2017-05-25T14:44:51Z</time>
      </trkpt>
      <trkpt lat="44.72546" lon="5.4919">
        <ele>1776.65</ele>
        <time>2017-05-25T14:45:07Z</time>
      </trkpt>
      <trkpt lat="44.72563" lon="5.49173">
        <ele>1775.21</ele>
        <time>2017-05-25T14:45:22Z</time>
      </trkpt>
      <trkpt lat="44.72576" lon="5.49153">
        <ele>1774.73</ele>
        <time>2017-05-25T14:45:38Z</time>
      </trkpt>
      <trkpt lat="44.72588" lon="5.49132">
        <ele>1773.29</ele>
        <time>2017-05-25T14:45:54Z</time>
      </trkpt>
      <trkpt lat="44.72599" lon="5.49112">
        <ele>1773.77</ele>
        <time>2017-05-25T14:46:09Z</time>
      </trkpt>
      <trkpt lat="44.72602" lon="5.49109">
        <ele>1775.21</ele>
        <time>2017-05-25T14:46:16Z</time>
      </trkpt>
      <trkpt lat="44.7261" lon="5.49103">
        <ele>1775.69</ele>
        <time>2017-05-25T14:46:23Z</time>
      </trkpt>
      <trkpt lat="44.72622" lon="5.4909">
        <ele>1774.73</ele>
        <time>2017-05-25T14:46:36Z</time>
      </trkpt>
      <trkpt lat="44.72625" lon="5.49085">
        <ele>1774.25</ele>
        <time>2017-05-25T14:46:39Z</time>
      </trkpt>
      <trkpt lat="44.72635" lon="5.4908">
        <ele>1771.37</ele>
        <time>2017-05-25T14:46:51Z</time>
      </trkpt>
      <trkpt lat="44.72656" lon="5.49067">
        <ele>1769.44</ele>
        <time>2017-05-25T14:47:08Z</time>
      </trkpt>
      <trkpt lat="44.72676" lon="5.49046">
        <ele>1769.44</ele>
        <time>2017-05-25T14:47:23Z</time>
      </trkpt>
      <trkpt lat="44.72697" lon="5.49031">
        <ele>1770.41</ele>
        <time>2017-05-25T14:47:41Z</time>
      </trkpt>
      <trkpt lat="44.72717" lon="5.4903">
        <ele>1770.89</ele>
        <time>2017-05-25T14:47:57Z</time>
      </trkpt>
      <trkpt lat="44.72736" lon="5.49026">
        <ele>1767.52</ele>
        <time>2017-05-25T14:48:12Z</time>
      </trkpt>
      <trkpt lat="44.72754" lon="5.49021">
        <ele>1766.08</ele>
        <time>2017-05-25T14:48:28Z</time>
      </trkpt>
      <trkpt lat="44.72761" lon="5.49018">
        <ele>1766.08</ele>
        <time>2017-05-25T14:48:43Z</time>
      </trkpt>
      <trkpt lat="44.72761" lon="5.49017">
        <ele>1765.6</ele>
        <time>2017-05-25T14:48:56Z</time>
      </trkpt>
      <trkpt lat="44.72761" lon="5.49017">
        <ele>1765.12</ele>
        <time>2017-05-25T14:49:26Z</time>
      </trkpt>
    </trkseg>
  </trk>
</gpx>